Air Quality Table

TIMESTAMP NO2 SO2 PM10 PM2.5 TEMP HUM AIRPRES WS WD NO
2023-02-03 21:00 71.38 µg/m3 2.41 µg/m3 59.48 µg/m3 28.64 µg/m3 11.59 °C 79.65 % 1,024.97 mbar 2.01 m/s 205.53 Deg 48.1 µg/m3
2023-02-03 20:00 79.46 µg/m3 2.52 µg/m3 76.79 µg/m3 22.15 µg/m3 13.03 °C 74.34 % 1,024.88 mbar 1.03 m/s 195.54 Deg 51.25 µg/m3
2023-02-03 19:00 28.42 µg/m3 1.05 µg/m3 34.41 µg/m3 9.27 µg/m3 13.78 °C 69.86 % 1,025.03 mbar 0.16 m/s 268.61 Deg 3.28 µg/m3
2023-02-03 18:00 21.31 µg/m3 1.1 µg/m3 28.86 µg/m3 8.55 µg/m3 14.52 °C 66.01 % 1,024.88 mbar 0.4 m/s 197.4 Deg 2.68 µg/m3
2023-02-03 17:00 10.45 µg/m3 1.66 µg/m3 21.94 µg/m3 6.82 µg/m3 15.66 °C 62.29 % 1,024.49 mbar 0.63 m/s 226.64 Deg 1.2 µg/m3
2023-02-03 16:00 8.17 µg/m3 1.34 µg/m3 19.11 µg/m3 6.15 µg/m3 15.88 °C 60.62 % 1,024.23 mbar 0.73 m/s 134.93 Deg 1.17 µg/m3
2023-02-03 15:00 9.33 µg/m3 1.56 µg/m3 21.11 µg/m3 6.3 µg/m3 15.86 °C 60.74 % 1,023.99 mbar 0.82 m/s 169.86 Deg 2.31 µg/m3
2023-02-03 14:00 11.44 µg/m3 1.87 µg/m3 24.95 µg/m3 7.4 µg/m3 15.87 °C 61.27 % 1,024.15 mbar 0.76 m/s 282.57 Deg 2.6 µg/m3
2023-02-03 13:00 15.09 µg/m3 1.94 µg/m3 31.46 µg/m3 8.35 µg/m3 15.46 °C 66.13 % 1,024.61 mbar 0.64 m/s 204.33 Deg 2.42 µg/m3
2023-02-03 12:00 19.58 µg/m3 2.05 µg/m3 32.49 µg/m3 8.05 µg/m3 15.37 °C 68.5 % 1,025.27 mbar 0.54 m/s 265.46 Deg 9.42 µg/m3
2023-02-03 11:00 71.98 µg/m3 3.39 µg/m3 53.61 µg/m3 21.58 µg/m3 13.86 °C 74.85 % 1,025.50 mbar 0.28 m/s 279.72 Deg 99.02 µg/m3
2023-02-03 10:00 93.57 µg/m3 6 µg/m3 75.36 µg/m3 36.97 µg/m3 11.69 °C 81.63 % 1,025.10 mbar 1.24 m/s 197.05 Deg 247.9 µg/m3
2023-02-03 09:00 77.08 µg/m3 4.49 µg/m3 58 µg/m3 28.06 µg/m3 10.47 °C 84.83 % 1,024.45 mbar 1.7 m/s 202.96 Deg 196.49 µg/m3
2023-02-03 08:00 63.01 µg/m3 4.17 µg/m3 40.41 µg/m3 19.04 µg/m3 9.56 °C 87.71 % 1,023.78 mbar 2.06 m/s 205.48 Deg 121.8 µg/m3
2023-02-03 07:00 53.32 µg/m3 3.1 µg/m3 32.44 µg/m3 15.01 µg/m3 9.52 °C 88.63 % 1,023.27 mbar 2.16 m/s 208.24 Deg 84.06 µg/m3
2023-02-03 06:00 41.73 µg/m3 2.2 µg/m3 26.74 µg/m3 12.07 µg/m3 9.72 °C 87.71 % 1,023.03 mbar 2.26 m/s 206.14 Deg 12.06 µg/m3
2023-02-03 05:00 32.39 µg/m3 2.01 µg/m3 19.08 µg/m3 8.24 µg/m3 10.19 °C 87.08 % 1,022.68 mbar 2.3 m/s 208.67 Deg 7.93 µg/m3
2023-02-03 04:00 34.67 µg/m3 2.21 µg/m3 21.63 µg/m3 9.59 µg/m3 10.98 °C 84.77 % 1,022.90 mbar 1.79 m/s 208.43 Deg 5.76 µg/m3
2023-02-03 03:00 33.07 µg/m3 1.38 µg/m3 18.62 µg/m3 8.32 µg/m3 10.94 °C 85.09 % 1,022.85 mbar 2 m/s 209.96 Deg 3.84 µg/m3
2023-02-03 02:00 46.33 µg/m3 2.64 µg/m3 25.4 µg/m3 11.48 µg/m3 11.24 °C 85.59 % 1,022.95 mbar 1.92 m/s 213.73 Deg 7.93 µg/m3
2023-02-03 01:00 53.55 µg/m3 2.77 µg/m3 26.79 µg/m3 12.08 µg/m3 11.88 °C 83.32 % 1,023.16 mbar 1.49 m/s 213.68 Deg 5.44 µg/m3
2023-02-03 00:00 61.78 µg/m3 3.07 µg/m3 29.4 µg/m3 13.45 µg/m3 12.07 °C 82.35 % 1,023.20 mbar 1.92 m/s 221.18 Deg 29.79 µg/m3
2023-02-02 23:00 58.53 µg/m3 3.34 µg/m3 42.63 µg/m3 20.33 µg/m3 12.03 °C 81.66 % 1,023.06 mbar 2.08 m/s 215.63 Deg 13.44 µg/m3
2023-02-02 22:00 76.34 µg/m3 3.94 µg/m3 33.42 µg/m3 15.57 µg/m3 12.51 °C 81.34 % 1,022.76 mbar 1.87 m/s 212.95 Deg 38.02 µg/m3
2023-02-02 21:00 69.69 µg/m3 3.53 µg/m3 36.29 µg/m3 16.96 µg/m3 13.04 °C 79.64 % 1,022.57 mbar 1.47 m/s 239.32 Deg 34.64 µg/m3
2023-02-02 20:00 73.11 µg/m3 3.88 µg/m3 37.72 µg/m3 17.67 µg/m3 13.01 °C 81.65 % 1,022.26 mbar 1.43 m/s 227.17 Deg 37.92 µg/m3
2023-02-02 19:00 67.83 µg/m3 3.31 µg/m3 28.06 µg/m3 10.54 µg/m3 13.8 °C 77.44 % 1,021.98 mbar 1.38 m/s 225.18 Deg 18.2 µg/m3
2023-02-02 18:00 35.78 µg/m3 2.98 µg/m3 19.04 µg/m3 6.66 µg/m3 14 °C 74.34 % 1,021.48 mbar 1.63 m/s 250.66 Deg 2.37 µg/m3
2023-02-02 17:00 26.07 µg/m3 3.06 µg/m3 15.45 µg/m3 5.9 µg/m3 13.83 °C 77.31 % 1,020.97 mbar 1.67 m/s 275.14 Deg 3.24 µg/m3
2023-02-02 16:00 28.22 µg/m3 3.04 µg/m3 15.9 µg/m3 6.93 µg/m3 13.04 °C 86.25 % 1,020.93 mbar 0.78 m/s 287.89 Deg 5.6 µg/m3
2023-02-02 15:00 26.79 µg/m3 3.18 µg/m3 15.19 µg/m3 7.11 µg/m3 12.8 °C 86.06 % 1,021.04 mbar 3.21 m/s 218.49 Deg 3.41 µg/m3
2023-02-02 14:00 14.63 µg/m3 3.49 µg/m3 17.36 µg/m3 6.46 µg/m3 14.08 °C 74.06 % 1,021.18 mbar 4.76 m/s 237.22 Deg 2.31 µg/m3
2023-02-02 13:00 12.97 µg/m3 2.35 µg/m3 16.59 µg/m3 6.05 µg/m3 14.08 °C 71.8 % 1,021.80 mbar 4.56 m/s 253.88 Deg 1.91 µg/m3
2023-02-02 12:00 15.41 µg/m3 1.71 µg/m3 14.45 µg/m3 6.1 µg/m3 13.59 °C 80.28 % 1,022.55 mbar 2.78 m/s 281.35 Deg 3.51 µg/m3
2023-02-02 11:00 43.62 µg/m3 2.54 µg/m3 18.8 µg/m3 8.04 µg/m3 13.28 °C 81.32 % 1,022.69 mbar 2.2 m/s 230.18 Deg 11.17 µg/m3
2023-02-02 10:00 29.05 µg/m3 3.15 µg/m3 18.08 µg/m3 8 µg/m3 12.92 °C 86.86 % 1,022.34 mbar 1.02 m/s 268.97 Deg 5.08 µg/m3
2023-02-02 09:00 60.13 µg/m3 3.55 µg/m3 24.36 µg/m3 9.55 µg/m3 13.21 °C 78.66 % 1,021.90 mbar 1.18 m/s 273.07 Deg 33.59 µg/m3
2023-02-02 08:00 65.49 µg/m3 3.25 µg/m3 16.87 µg/m3 7.15 µg/m3 13 °C 76.96 % 1,021.47 mbar 1.84 m/s 204.7 Deg 16.3 µg/m3
2023-02-02 07:00 54.77 µg/m3 3.52 µg/m3 16.15 µg/m3 7.19 µg/m3 12.87 °C 79.73 % 1,021.28 mbar 2.09 m/s 222.19 Deg 8.02 µg/m3
2023-02-02 06:00 51.33 µg/m3 3.5 µg/m3 17.49 µg/m3 7.49 µg/m3 12.64 °C 77.65 % 1,021.07 mbar 1.51 m/s 202.4 Deg 8.66 µg/m3
2023-02-02 05:00 54.69 µg/m3 3.61 µg/m3 18.19 µg/m3 8.87 µg/m3 12.07 °C 80.11 % 1,020.99 mbar 2.55 m/s 214.08 Deg 15.27 µg/m3
2023-02-02 04:00 29.6 µg/m3 3.53 µg/m3 16.68 µg/m3 8.07 µg/m3 11.42 °C 79.97 % 1,021.47 mbar 2.26 m/s 207.93 Deg 0.56 µg/m3
2023-02-02 03:00 33.64 µg/m3 2.9 µg/m3 16.59 µg/m3 8.04 µg/m3 11.03 °C 80.08 % 1,022.10 mbar 1.85 m/s 210.85 Deg 0.81 µg/m3
2023-02-02 02:00 28.4 µg/m3 3.12 µg/m3 17.83 µg/m3 8.62 µg/m3 10.51 °C 78.91 % 1,022.51 mbar 1.89 m/s 211.23 Deg 0.18 µg/m3
2023-02-02 01:00 42.07 µg/m3 3.61 µg/m3 20.14 µg/m3 9.98 µg/m3 10.21 °C 77.05 % 1,022.95 mbar 2.24 m/s 206.6 Deg 0.65 µg/m3
2023-02-02 00:00 48.42 µg/m3 3.64 µg/m3 21.78 µg/m3 10.5 µg/m3 10.19 °C 75.87 % 1,023.37 mbar 2.31 m/s 214.79 Deg 2.41 µg/m3
2023-02-01 23:00 59.41 µg/m3 3.48 µg/m3 30.11 µg/m3 13.54 µg/m3 10.41 °C 73.83 % 1,023.36 mbar 1.73 m/s 211.22 Deg 5.01 µg/m3
2023-02-01 22:00 65.37 µg/m3 3.51 µg/m3 37.7 µg/m3 17.51 µg/m3 10.46 °C 71.89 % 1,023.33 mbar 2.15 m/s 211.79 Deg 8.29 µg/m3
2023-02-01 21:00 73.4 µg/m3 4.05 µg/m3 52.54 µg/m3 21.81 µg/m3 10.93 °C 70.44 % 1,023.52 mbar 1.99 m/s 214.43 Deg 24.85 µg/m3
2023-02-01 20:00 84.59 µg/m3 4.07 µg/m3 52.76 µg/m3 20.07 µg/m3 11.85 °C 64.75 % 1,023.67 mbar 1.89 m/s 207.03 Deg 32.48 µg/m3
2023-02-01 19:00 63.89 µg/m3 3.51 µg/m3 37.71 µg/m3 15.25 µg/m3 12.89 °C 58.35 % 1,023.58 mbar 2.21 m/s 231 Deg 11.02 µg/m3
2023-02-01 18:00 26.08 µg/m3 3.35 µg/m3 20.13 µg/m3 7.49 µg/m3 13.53 °C 56.69 % 1,023.18 mbar 2.96 m/s 234.9 Deg 1.42 µg/m3
2023-02-01 17:00 14.46 µg/m3 3.73 µg/m3 18.84 µg/m3 6.88 µg/m3 14.03 °C 55.4 % 1,022.82 mbar 3.86 m/s 227.78 Deg 3.15 µg/m3
2023-02-01 16:00 17.5 µg/m3 4.43 µg/m3 20.1 µg/m3 7.12 µg/m3 14.37 °C 53.26 % 1,022.84 mbar 2.76 m/s 197.48 Deg 4.5 µg/m3
2023-02-01 15:00 20.47 µg/m3 3.94 µg/m3 30.73 µg/m3 7.34 µg/m3 14.61 °C 49.8 % 1,022.86 mbar 0.69 m/s 267.12 Deg 4.03 µg/m3
2023-02-01 14:00 8.09 µg/m3 3.77 µg/m3 22.85 µg/m3 6.22 µg/m3 14.4 °C 48.84 % 1,022.98 mbar 0.71 m/s 148.66 Deg 4.16 µg/m3
2023-02-01 13:00 6.83 µg/m3 3.34 µg/m3 22.41 µg/m3 6.13 µg/m3 14.38 °C 49.33 % 1,023.54 mbar 0.49 m/s 184.62 Deg 1.25 µg/m3
2023-02-01 12:00 15.33 µg/m3 3.91 µg/m3 29.06 µg/m3 6.78 µg/m3 14.14 °C 51.25 % 1,024.24 mbar 0.56 m/s 217.35 Deg 4.23 µg/m3
2023-02-01 11:00 25.73 µg/m3 3.3 µg/m3 43.08 µg/m3 8.62 µg/m3 13.32 °C 54.78 % 1,024.50 mbar 0.37 m/s 246.23 Deg 5.35 µg/m3
2023-02-01 10:00 72.08 µg/m3 5.23 µg/m3 89.43 µg/m3 20.97 µg/m3 12.13 °C 63.12 % 1,024.21 mbar 0.69 m/s 176.15 Deg 100.06 µg/m3
2023-02-01 09:00 96.61 µg/m3 6.91 µg/m3 94.15 µg/m3 28 µg/m3 10.1 °C 72.5 % 1,023.63 mbar 2 m/s 199.86 Deg 224.05 µg/m3
2023-02-01 08:00 83.25 µg/m3 5.98 µg/m3 56.22 µg/m3 18.85 µg/m3 9.37 °C 73.46 % 1,023.07 mbar 2.12 m/s 200.16 Deg 143.3 µg/m3
2023-02-01 07:00 67.04 µg/m3 4.06 µg/m3 32.63 µg/m3 13.14 µg/m3 9.42 °C 74.93 % 1,022.50 mbar 2.1 m/s 203.29 Deg 51.37 µg/m3
2023-02-01 06:00 58.56 µg/m3 3.44 µg/m3 23.03 µg/m3 10.82 µg/m3 9.87 °C 75.71 % 1,022.03 mbar 1.97 m/s 209.15 Deg 18.57 µg/m3
2023-02-01 05:00 47.32 µg/m3 3.47 µg/m3 21.31 µg/m3 9.47 µg/m3 10.24 °C 73.78 % 1,021.69 mbar 2.31 m/s 205.68 Deg 10.79 µg/m3
2023-02-01 04:00 16.95 µg/m3 3.71 µg/m3 16.19 µg/m3 6.67 µg/m3 12.34 °C 58.61 % 1,021.29 mbar 1.05 m/s 198.61 Deg 1.27 µg/m3
2023-02-01 03:00 3.02 µg/m3 3.67 µg/m3 14.28 µg/m3 5.4 µg/m3 12.94 °C 53.09 % 1,021.21 mbar 1.17 m/s 263.9 Deg -0.04 µg/m3
2023-02-01 02:00 3.06 µg/m3 3.63 µg/m3 14.47 µg/m3 5.63 µg/m3 12.98 °C 56.41 % 1,021.05 mbar 1.24 m/s 236.51 Deg -0.02 µg/m3
2023-02-01 01:00 2.97 µg/m3 3.08 µg/m3 15.98 µg/m3 6.03 µg/m3 13.08 °C 61.25 % 1,020.81 mbar 1.19 m/s 278.56 Deg 0.09 µg/m3
2023-02-01 00:00 2.94 µg/m3 3.46 µg/m3 15.98 µg/m3 5.75 µg/m3 13.42 °C 59.14 % 1,020.55 mbar 1.88 m/s 326.23 Deg 0.53 µg/m3
2023-01-31 23:00 1.85 µg/m3 3.33 µg/m3 16.15 µg/m3 6.15 µg/m3 13.69 °C 62.04 % 1,020.16 mbar 3.01 m/s 350.73 Deg -0.1 µg/m3
2023-01-31 22:00 2.56 µg/m3 3.13 µg/m3 19.63 µg/m3 7.26 µg/m3 13.99 °C 64.47 % 1,019.76 mbar 2.73 m/s 343.97 Deg 0.31 µg/m3
2023-01-31 21:00 4.68 µg/m3 3.32 µg/m3 20.52 µg/m3 7.73 µg/m3 13.98 °C 64.9 % 1,019.35 mbar 2.33 m/s 323.82 Deg 0.68 µg/m3
2023-01-31 20:00 8.33 µg/m3 2.83 µg/m3 21.17 µg/m3 7.75 µg/m3 14 °C 66.19 % 1,018.88 mbar 2.97 m/s 291.84 Deg 0.55 µg/m3
2023-01-31 19:00 13.87 µg/m3 2.9 µg/m3 19.78 µg/m3 7.1 µg/m3 13.95 °C 64.69 % 1,018.62 mbar 3.56 m/s 275.62 Deg 1.85 µg/m3
2023-01-31 18:00 11.6 µg/m3 3.25 µg/m3 22.21 µg/m3 7.26 µg/m3 14.23 °C 61.16 % 1,018.21 mbar 2.94 m/s 290.05 Deg 4.44 µg/m3
2023-01-31 17:00 11.05 µg/m3 3.42 µg/m3 22.52 µg/m3 7.13 µg/m3 14.7 °C 60.2 % 1,017.57 mbar 3.37 m/s 293.43 Deg 2.25 µg/m3
2023-01-31 16:00 8.23 µg/m3 3.35 µg/m3 23.45 µg/m3 7.6 µg/m3 14.52 °C 61.41 % 1,017.28 mbar 3.99 m/s 286.17 Deg 1.68 µg/m3
2023-01-31 15:00 10.17 µg/m3 2.67 µg/m3 25.06 µg/m3 7.51 µg/m3 14.3 °C 61.89 % 1,017.31 mbar 3.86 m/s 281.74 Deg 2.41 µg/m3
2023-01-31 14:00 8.06 µg/m3 2.27 µg/m3 20.29 µg/m3 6.88 µg/m3 14.3 °C 59.91 % 1,017.51 mbar 4.9 m/s 284.12 Deg 1.4 µg/m3
2023-01-31 13:00 9.85 µg/m3 2.28 µg/m3 21.26 µg/m3 7.16 µg/m3 14.81 °C 58.04 % 1,017.76 mbar 4.83 m/s 278.13 Deg 2.03 µg/m3
2023-01-31 12:00 1.21 µg/m3 -2.01 µg/m3 19.49 µg/m3 6.65 µg/m3 14.48 °C 57.33 % 1,018.28 mbar 6.76 m/s 277.67 Deg 44.87 µg/m3
2023-01-31 10:00 -1.25 µg/m3 2.27 µg/m3 21.91 µg/m3 7.25 µg/m3 13.99 °C 63.85 % 1,018.50 mbar 4.58 m/s 283.81 Deg -0.62 µg/m3
2023-01-31 09:00 -0.85 µg/m3 2.39 µg/m3 18.85 µg/m3 6.76 µg/m3 13.75 °C 61.62 % 1,017.91 mbar 4.48 m/s 274.39 Deg -0.23 µg/m3
2023-01-31 08:00 14.61 µg/m3 2.14 µg/m3 16.31 µg/m3 6.21 µg/m3 13.2 °C 64.4 % 1,017.75 mbar 4.68 m/s 268.33 Deg 1.98 µg/m3
2023-01-31 07:00 11.69 µg/m3 2.6 µg/m3 15.05 µg/m3 5.91 µg/m3 13.11 °C 64.76 % 1,017.44 mbar 4.49 m/s 264.03 Deg 0.74 µg/m3
2023-01-31 06:00 10.35 µg/m3 2.73 µg/m3 13.66 µg/m3 5.54 µg/m3 12.89 °C 68.6 % 1,017.41 mbar 3.48 m/s 253.98 Deg 0.48 µg/m3
2023-01-31 05:00 8.84 µg/m3 2.73 µg/m3 12.63 µg/m3 4.82 µg/m3 12.67 °C 68.67 % 1,017.56 mbar 3.17 m/s 247.41 Deg 0.83 µg/m3
2023-01-31 04:00 6.09 µg/m3 2.66 µg/m3 12.12 µg/m3 5.15 µg/m3 12.39 °C 71.07 % 1,017.84 mbar 3.07 m/s 245.48 Deg -0.19 µg/m3
2023-01-31 03:00 6.57 µg/m3 2.24 µg/m3 12.8 µg/m3 5.34 µg/m3 12.56 °C 67.77 % 1,018.25 mbar 3.24 m/s 251.7 Deg -0.1 µg/m3
2023-01-31 02:00 1.93 µg/m3 2.53 µg/m3 12.27 µg/m3 5.09 µg/m3 12.86 °C 64.71 % 1,018.63 mbar 3.8 m/s 275.98 Deg -0.24 µg/m3
2023-01-31 01:00 2.42 µg/m3 2.61 µg/m3 13.6 µg/m3 5.18 µg/m3 12.96 °C 63.86 % 1,018.94 mbar 2.63 m/s 299.06 Deg 0.17 µg/m3
2023-01-31 00:00 4.51 µg/m3 2.77 µg/m3 15.06 µg/m3 5.36 µg/m3 13.15 °C 63.4 % 1,019.00 mbar 2.42 m/s 287.81 Deg 0.13 µg/m3
2023-01-30 23:00 17.72 µg/m3 2.34 µg/m3 14.48 µg/m3 6.28 µg/m3 12.74 °C 66.56 % 1,018.82 mbar 3.26 m/s 235.6 Deg 0.94 µg/m3
2023-01-30 22:00 42.81 µg/m3 2.58 µg/m3 23.61 µg/m3 11.76 µg/m3 11.91 °C 74.48 % 1,018.60 mbar 2.92 m/s 204.98 Deg 1.47 µg/m3
2023-01-30 21:00 60.6 µg/m3 2.86 µg/m3 29.57 µg/m3 14.32 µg/m3 11.92 °C 75.29 % 1,018.66 mbar 2.85 m/s 205.73 Deg 4.44 µg/m3
2023-01-30 20:00 55.49 µg/m3 2.76 µg/m3 26.27 µg/m3 11.71 µg/m3 12.57 °C 72.01 % 1,018.56 mbar 2.29 m/s 232.14 Deg 8.71 µg/m3
2023-01-30 19:00 57.5 µg/m3 2.9 µg/m3 28.74 µg/m3 12.62 µg/m3 12.79 °C 69.53 % 1,018.43 mbar 2.53 m/s 225.1 Deg 6.48 µg/m3
2023-01-30 18:00 33.66 µg/m3 2.96 µg/m3 21.78 µg/m3 8.62 µg/m3 13.29 °C 64.93 % 1,018.15 mbar 2.67 m/s 254.66 Deg 4.58 µg/m3
2023-01-30 17:00 15.78 µg/m3 3.37 µg/m3 17.79 µg/m3 6.7 µg/m3 13.95 °C 61.51 % 1,018.06 mbar 2.57 m/s 281.73 Deg 2.37 µg/m3
2023-01-30 16:00 10.1 µg/m3 3.32 µg/m3 17.16 µg/m3 6.31 µg/m3 14.1 °C 59.95 % 1,017.78 mbar 1.8 m/s 316.99 Deg 1.8 µg/m3
2023-01-30 15:00 9.13 µg/m3 2.68 µg/m3 17.83 µg/m3 6.21 µg/m3 13.76 °C 62.89 % 1,017.62 mbar 1.64 m/s 309.23 Deg 1.78 µg/m3
2023-01-30 14:00 12.04 µg/m3 3.09 µg/m3 25.66 µg/m3 7.36 µg/m3 13.99 °C 64.03 % 1,017.69 mbar 1.18 m/s 310.78 Deg 2.31 µg/m3
2023-01-30 13:00 9.6 µg/m3 3.09 µg/m3 38.66 µg/m3 8.45 µg/m3 14.01 °C 62.98 % 1,018.15 mbar 0.97 m/s 259.09 Deg 2.28 µg/m3
2023-01-30 12:00 7.7 µg/m3 3.31 µg/m3 28.97 µg/m3 7.19 µg/m3 14.33 °C 59.49 % 1,018.80 mbar 0.91 m/s 332.95 Deg 2.2 µg/m3
2023-01-30 11:00 12.31 µg/m3 3.54 µg/m3 21.05 µg/m3 6.22 µg/m3 13.64 °C 61.36 % 1,019.01 mbar 1.04 m/s 324.28 Deg 2.9 µg/m3
2023-01-30 10:00 27.03 µg/m3 9.95 µg/m3 34.88 µg/m3 15.32 µg/m3 12.18 °C 74.57 % 1,018.73 mbar 1.18 m/s 257.27 Deg 8.83 µg/m3
2023-01-30 09:00 81.05 µg/m3 5.27 µg/m3 55.92 µg/m3 27.38 µg/m3 10.84 °C 80.64 % 1,018.16 mbar 1.75 m/s 207.92 Deg 165.15 µg/m3
2023-01-30 08:00 48.46 µg/m3 4.07 µg/m3 28.83 µg/m3 12.46 µg/m3 11.93 °C 72.01 % 1,017.55 mbar 1.11 m/s 272.27 Deg 64.53 µg/m3
2023-01-30 07:00 15.31 µg/m3 2.74 µg/m3 20.09 µg/m3 7.42 µg/m3 12.62 °C 68.69 % 1,016.99 mbar 1.33 m/s 195.68 Deg 2.57 µg/m3
2023-01-30 06:00 9.42 µg/m3 3.09 µg/m3 18.13 µg/m3 6.9 µg/m3 12.6 °C 70.3 % 1,016.57 mbar 1.56 m/s 177.12 Deg 1.78 µg/m3
2023-01-30 05:00 11.59 µg/m3 2.68 µg/m3 20.46 µg/m3 7.68 µg/m3 12.34 °C 73.53 % 1,016.45 mbar 1.2 m/s 222.68 Deg 2.38 µg/m3
2023-01-30 04:00 3.12 µg/m3 2.99 µg/m3 16.6 µg/m3 6.16 µg/m3 11.52 °C 76.24 % 1,016.67 mbar 1.69 m/s 257.77 Deg -0.04 µg/m3
2023-01-30 03:00 3.81 µg/m3 3.33 µg/m3 11.47 µg/m3 4.64 µg/m3 10.52 °C 77.33 % 1,017.20 mbar 2.36 m/s 282.86 Deg 0.02 µg/m3
2023-01-30 02:00 2.42 µg/m3 3.05 µg/m3 13 µg/m3 5.19 µg/m3 11.58 °C 78.02 % 1,016.97 mbar 2.61 m/s 340.96 Deg -0.37 µg/m3
2023-01-30 01:00 17.19 µg/m3 3.02 µg/m3 15.47 µg/m3 6.74 µg/m3 12.79 °C 75.23 % 1,016.53 mbar 2.87 m/s 172.78 Deg 1.13 µg/m3
2023-01-30 00:00 5.52 µg/m3 3.06 µg/m3 19.2 µg/m3 7.46 µg/m3 12.75 °C 73.81 % 1,016.70 mbar 1.86 m/s 189.53 Deg 0.04 µg/m3
2023-01-29 23:00 11.54 µg/m3 3.1 µg/m3 22.01 µg/m3 9.72 µg/m3 11.93 °C 80.16 % 1,016.73 mbar 1.06 m/s 187.91 Deg 1.07 µg/m3
2023-01-29 22:00 8.74 µg/m3 3.27 µg/m3 17.62 µg/m3 7.22 µg/m3 12.1 °C 79.44 % 1,016.66 mbar 1.18 m/s 314.68 Deg 0.64 µg/m3
2023-01-29 21:00 26.77 µg/m3 2.38 µg/m3 19.2 µg/m3 9.05 µg/m3 10.1 °C 92.81 % 1,016.22 mbar 2.3 m/s 206.83 Deg 2.51 µg/m3
2023-01-29 20:00 12.89 µg/m3 1.69 µg/m3 18.93 µg/m3 8.4 µg/m3 9.77 °C 90.34 % 1,016.23 mbar 1.84 m/s 261.12 Deg 1.58 µg/m3
2023-01-29 19:00 9.73 µg/m3 1.85 µg/m3 13.87 µg/m3 5.52 µg/m3 10.55 °C 87.21 % 1,015.99 mbar 0.78 m/s 248.32 Deg 0.34 µg/m3
2023-01-29 18:00 3.45 µg/m3 2.04 µg/m3 11.85 µg/m3 4.3 µg/m3 11.2 °C 77.42 % 1,015.58 mbar 1.86 m/s 215.74 Deg 0.53 µg/m3
2023-01-29 17:00 9.75 µg/m3 2.93 µg/m3 11.65 µg/m3 3.72 µg/m3 12.86 °C 71.81 % 1,014.95 mbar 2.9 m/s 169.43 Deg 1.58 µg/m3
2023-01-29 16:00 4.5 µg/m3 2.52 µg/m3 11.48 µg/m3 3.81 µg/m3 13.2 °C 73.12 % 1,014.76 mbar 2.85 m/s 151.43 Deg 0.85 µg/m3
2023-01-29 15:00 14.04 µg/m3 2.48 µg/m3 13.06 µg/m3 4.71 µg/m3 13.2 °C 72.39 % 1,014.55 mbar 2.95 m/s 152.4 Deg 5.11 µg/m3
2023-01-29 14:00 4.29 µg/m3 2.52 µg/m3 15.14 µg/m3 5.24 µg/m3 13.37 °C 70.96 % 1,014.76 mbar 1.78 m/s 180.15 Deg 1.07 µg/m3
2023-01-29 13:00 6.16 µg/m3 2.74 µg/m3 15.64 µg/m3 4.99 µg/m3 13.14 °C 70.35 % 1,015.39 mbar 1.72 m/s 155.09 Deg 2.04 µg/m3
2023-01-29 12:00 17.14 µg/m3 2.73 µg/m3 15.97 µg/m3 5.37 µg/m3 13.05 °C 68.69 % 1,015.92 mbar 1.52 m/s 222.75 Deg 9.1 µg/m3
2023-01-29 11:00 6.71 µg/m3 2.4 µg/m3 10.61 µg/m3 3.7 µg/m3 12.6 °C 71.5 % 1,015.98 mbar 2.12 m/s 161.98 Deg 2.13 µg/m3
2023-01-29 10:00 8.78 µg/m3 2.35 µg/m3 9.79 µg/m3 3.59 µg/m3 12.51 °C 70.31 % 1,015.38 mbar 1.76 m/s 180.98 Deg 1.89 µg/m3
2023-01-29 09:00 5.37 µg/m3 2.37 µg/m3 9.99 µg/m3 3.37 µg/m3 12.29 °C 67.35 % 1,014.71 mbar 1.64 m/s 339.03 Deg 0.59 µg/m3
2023-01-29 08:00 28.35 µg/m3 2.73 µg/m3 10.47 µg/m3 3.92 µg/m3 10.97 °C 75.05 % 1,014.02 mbar 1.4 m/s 285.3 Deg 7.51 µg/m3
2023-01-29 07:00 28.3 µg/m3 2.47 µg/m3 11.31 µg/m3 4.7 µg/m3 10.3 °C 78.03 % 1,013.76 mbar 3.2 m/s 225.13 Deg 8.78 µg/m3
2023-01-29 06:00 31.26 µg/m3 2.3 µg/m3 10.21 µg/m3 4.27 µg/m3 9.9 °C 82.51 % 1,013.45 mbar 2.6 m/s 209.75 Deg 0.86 µg/m3
2023-01-29 05:00 22.23 µg/m3 2.4 µg/m3 10.13 µg/m3 4.22 µg/m3 9.52 °C 84.95 % 1,013.15 mbar 2.24 m/s 206.39 Deg 1.18 µg/m3
2023-01-29 04:00 22.08 µg/m3 2.5 µg/m3 10.88 µg/m3 4.75 µg/m3 9.94 °C 83.97 % 1,013.03 mbar 2.34 m/s 210.53 Deg 0.55 µg/m3
2023-01-29 03:00 27.98 µg/m3 2.16 µg/m3 10.87 µg/m3 4.66 µg/m3 10.03 °C 84.04 % 1,012.92 mbar 2.16 m/s 209.61 Deg 0.35 µg/m3
2023-01-29 02:00 18.14 µg/m3 2.58 µg/m3 10.41 µg/m3 4.39 µg/m3 9.95 °C 82.45 % 1,012.90 mbar 3.03 m/s 203 Deg 0.38 µg/m3
2023-01-29 01:00 16.72 µg/m3 2.32 µg/m3 9.07 µg/m3 3.42 µg/m3 10.22 °C 77.34 % 1,012.49 mbar 2.79 m/s 238.26 Deg 0.45 µg/m3
2023-01-29 00:00 5 µg/m3 2.06 µg/m3 7.89 µg/m3 2.66 µg/m3 8.67 °C 86.25 % 1,012.89 mbar 4.17 m/s 259.34 Deg 0.04 µg/m3
2023-01-28 23:00 8.39 µg/m3 2.34 µg/m3 10.95 µg/m3 4.28 µg/m3 9.76 °C 82.18 % 1,012.81 mbar 3.57 m/s 250.68 Deg 0.46 µg/m3
2023-01-28 22:00 30.66 µg/m3 2.66 µg/m3 14.75 µg/m3 6.76 µg/m3 10.04 °C 83.79 % 1,012.17 mbar 3.15 m/s 249.64 Deg 3.18 µg/m3
2023-01-28 21:00 30.5 µg/m3 2.52 µg/m3 13.92 µg/m3 6.33 µg/m3 10 °C 82.8 % 1,011.73 mbar 2.82 m/s 202.52 Deg 2.75 µg/m3
2023-01-28 20:00 21.66 µg/m3 2.55 µg/m3 11.03 µg/m3 4.58 µg/m3 10.04 °C 79.84 % 1,011.37 mbar 3.05 m/s 212.86 Deg 0.37 µg/m3
2023-01-28 19:00 31.44 µg/m3 2.78 µg/m3 12.55 µg/m3 5.82 µg/m3 10.58 °C 74.24 % 1,011.15 mbar 4.44 m/s 226.01 Deg 3.79 µg/m3
2023-01-28 18:00 21.22 µg/m3 2.94 µg/m3 11.06 µg/m3 4.39 µg/m3 11.1 °C 69.91 % 1,010.40 mbar 2.93 m/s 240.7 Deg 1.18 µg/m3
2023-01-28 17:00 22.07 µg/m3 2.64 µg/m3 12.54 µg/m3 5.24 µg/m3 11.19 °C 74.79 % 1,010.05 mbar 3.27 m/s 227.31 Deg 2.44 µg/m3
2023-01-28 16:00 19.12 µg/m3 2.73 µg/m3 9.9 µg/m3 3.93 µg/m3 10.87 °C 73.62 % 1,009.57 mbar 5.42 m/s 226.54 Deg 2.42 µg/m3
2023-01-28 15:00 34.22 µg/m3 2.09 µg/m3 14.78 µg/m3 7.11 µg/m3 11.06 °C 72.87 % 1,009.09 mbar 4.21 m/s 218.13 Deg 7.86 µg/m3
2023-01-28 14:00 12.77 µg/m3 2.27 µg/m3 10.76 µg/m3 3.88 µg/m3 11.98 °C 66.49 % 1,009.03 mbar 5.14 m/s 232.52 Deg 1.54 µg/m3
2023-01-28 13:00 9.41 µg/m3 1.74 µg/m3 9.95 µg/m3 3.18 µg/m3 12.54 °C 65.84 % 1,009.39 mbar 3.18 m/s 243.1 Deg 2.02 µg/m3
2023-01-28 12:00 10.9 µg/m3 1.81 µg/m3 10.95 µg/m3 3.35 µg/m3 11.59 °C 70.66 % 1,009.91 mbar 2.24 m/s 270.71 Deg 2.07 µg/m3
2023-01-28 11:00 54.44 µg/m3 2.14 µg/m3 19.19 µg/m3 8.14 µg/m3 10.87 °C 79.27 % 1,010.22 mbar 2.03 m/s 211.43 Deg 31 µg/m3
2023-01-28 10:00 63.42 µg/m3 1.86 µg/m3 17.79 µg/m3 7.57 µg/m3 9.83 °C 80.23 % 1,009.93 mbar 1.65 m/s 197.25 Deg 23.89 µg/m3
2023-01-28 09:00 38.99 µg/m3 1.59 µg/m3 12.91 µg/m3 5.15 µg/m3 9.64 °C 80.06 % 1,009.31 mbar 1.72 m/s 262.49 Deg 32.55 µg/m3
2023-01-28 08:00 74.76 µg/m3 2.51 µg/m3 15.21 µg/m3 6.48 µg/m3 9.63 °C 80.39 % 1,008.80 mbar 1.21 m/s 177.19 Deg 50.38 µg/m3
2023-01-28 07:00 72.8 µg/m3 2.91 µg/m3 15.45 µg/m3 6.74 µg/m3 9.58 °C 83.2 % 1,008.57 mbar 1.66 m/s 207.98 Deg 36.06 µg/m3
2023-01-28 06:00 59.51 µg/m3 2.06 µg/m3 13.43 µg/m3 5.6 µg/m3 9.74 °C 79.47 % 1,008.46 mbar 1.29 m/s 198.21 Deg 7.58 µg/m3
2023-01-28 05:00 42.28 µg/m3 2.05 µg/m3 18.85 µg/m3 8.3 µg/m3 9.6 °C 78.9 % 1,008.22 mbar 1.84 m/s 187.55 Deg 2.95 µg/m3
2023-01-28 04:00 28.96 µg/m3 2.29 µg/m3 11.52 µg/m3 4.73 µg/m3 9.86 °C 78.52 % 1,008.30 mbar 2.83 m/s 206.33 Deg 0.31 µg/m3
2023-01-28 03:00 28.04 µg/m3 2.1 µg/m3 10.41 µg/m3 4.05 µg/m3 10.02 °C 76.98 % 1,008.37 mbar 3.22 m/s 229.98 Deg 0.73 µg/m3
2023-01-28 02:00 44.89 µg/m3 1.17 µg/m3 14.61 µg/m3 6.41 µg/m3 10.46 °C 79.15 % 1,008.19 mbar 2.93 m/s 211.73 Deg 3.93 µg/m3
2023-01-28 01:00 47.38 µg/m3 1.39 µg/m3 16.3 µg/m3 8.08 µg/m3 10.51 °C 81.89 % 1,008.20 mbar 2.26 m/s 213.15 Deg 14.02 µg/m3
2023-01-28 00:00 61.61 µg/m3 1.45 µg/m3 20.21 µg/m3 10.11 µg/m3 10.29 °C 84.73 % 1,008.27 mbar 1.9 m/s 205.05 Deg 26.15 µg/m3
2023-01-27 23:00 60.25 µg/m3 2.71 µg/m3 19.93 µg/m3 9.77 µg/m3 10.58 °C 81.44 % 1,008.30 mbar 2.64 m/s 208.31 Deg 17.91 µg/m3
2023-01-27 22:00 22.44 µg/m3 2.39 µg/m3 15 µg/m3 6.57 µg/m3 11.19 °C 77.2 % 1,008.04 mbar 2.99 m/s 218.84 Deg 0.14 µg/m3
2023-01-27 21:00 43.4 µg/m3 2.86 µg/m3 16.92 µg/m3 8.13 µg/m3 11.94 °C 78.06 % 1,008.04 mbar 3.27 m/s 217.51 Deg 5.57 µg/m3
2023-01-27 20:00 33.27 µg/m3 2.56 µg/m3 20.42 µg/m3 7.52 µg/m3 12.49 °C 73.31 % 1,007.36 mbar 2.43 m/s 242.34 Deg 4.72 µg/m3
2023-01-27 19:00 29.19 µg/m3 2.71 µg/m3 19.96 µg/m3 6.51 µg/m3 12.68 °C 71.65 % 1,006.66 mbar 2.52 m/s 247.01 Deg 2.66 µg/m3
2023-01-27 18:00 26.42 µg/m3 2.48 µg/m3 15.25 µg/m3 5.45 µg/m3 12.64 °C 74.17 % 1,005.87 mbar 3.08 m/s 249.89 Deg 1.45 µg/m3
2023-01-27 17:00 20.39 µg/m3 2.54 µg/m3 12.62 µg/m3 4.49 µg/m3 13 °C 70.03 % 1,005.44 mbar 3.99 m/s 250.24 Deg 2.33 µg/m3
2023-01-27 16:00 17.43 µg/m3 2.28 µg/m3 13.21 µg/m3 4.81 µg/m3 12.78 °C 74.45 % 1,004.68 mbar 3.33 m/s 258.07 Deg 2.52 µg/m3
2023-01-27 15:00 11.63 µg/m3 2.52 µg/m3 14.27 µg/m3 4.26 µg/m3 13.35 °C 65.31 % 1,004.06 mbar 4.71 m/s 272.43 Deg 3.54 µg/m3
2023-01-27 14:00 10.72 µg/m3 2.26 µg/m3 15.18 µg/m3 3.75 µg/m3 13.47 °C 65.82 % 1,003.62 mbar 3.75 m/s 278.75 Deg 3.46 µg/m3
2023-01-27 13:00 14.88 µg/m3 2.99 µg/m3 16.17 µg/m3 3.96 µg/m3 12.9 °C 71.37 % 1,003.50 mbar 3.65 m/s 278.23 Deg 3.62 µg/m3
2023-01-27 12:00 16.17 µg/m3 2.8 µg/m3 14.33 µg/m3 3.89 µg/m3 12.63 °C 72.46 % 1,003.80 mbar 3.7 m/s 273.61 Deg 2.58 µg/m3
2023-01-27 11:00 15.46 µg/m3 2.79 µg/m3 15.03 µg/m3 3.97 µg/m3 12.52 °C 73.85 % 1,003.59 mbar 2.31 m/s 288.82 Deg 3.31 µg/m3
2023-01-27 10:00 0 µg/m3 2.61 µg/m3 12.52 µg/m3 3.76 µg/m3 12.39 °C 73.45 % 1,002.86 mbar 2.5 m/s 292.83 Deg 0 µg/m3
2023-01-27 09:00 11.41 µg/m3 2.45 µg/m3 12.78 µg/m3 4.28 µg/m3 12.24 °C 76.38 % 1,001.96 mbar 3.44 m/s 267.97 Deg 1.44 µg/m3
2023-01-27 08:00 22.12 µg/m3 2.09 µg/m3 12.3 µg/m3 4.61 µg/m3 11.74 °C 77.12 % 1,001.24 mbar 4.6 m/s 247.34 Deg 2.45 µg/m3
2023-01-27 07:00 21.76 µg/m3 2.22 µg/m3 10.85 µg/m3 4.17 µg/m3 10.56 °C 84.61 % 1,001.05 mbar 3.19 m/s 254.23 Deg 2.29 µg/m3
2023-01-27 06:00 33.73 µg/m3 1.61 µg/m3 11.87 µg/m3 4.67 µg/m3 9.71 °C 88.75 % 1,000.99 mbar 1.52 m/s 223.09 Deg 1.88 µg/m3
2023-01-27 05:00 5.48 µg/m3 1.62 µg/m3 11.85 µg/m3 4.55 µg/m3 9.72 °C 88.03 % 1,000.95 mbar 3.11 m/s 275.72 Deg 0.55 µg/m3
2023-01-27 04:00 24.44 µg/m3 2.23 µg/m3 13.99 µg/m3 6.02 µg/m3 11.36 °C 77.03 % 1,001.44 mbar 6.64 m/s 223.56 Deg 12.36 µg/m3
2023-01-27 03:00 21.81 µg/m3 1.72 µg/m3 9.3 µg/m3 3.61 µg/m3 11.05 °C 79.74 % 1,001.99 mbar 6.71 m/s 220.82 Deg 2.41 µg/m3
2023-01-27 02:00 38 µg/m3 2.28 µg/m3 13.47 µg/m3 6.19 µg/m3 9.91 °C 82.8 % 1,002.72 mbar 2.62 m/s 198.24 Deg 1.38 µg/m3
2023-01-27 01:00 51.57 µg/m3 2.75 µg/m3 14.99 µg/m3 7.27 µg/m3 9.38 °C 84.56 % 1,003.23 mbar 1.45 m/s 186.93 Deg 10.65 µg/m3
2023-01-27 00:00 45.44 µg/m3 3.25 µg/m3 16.84 µg/m3 8.26 µg/m3 8.96 °C 85.84 % 1,003.77 mbar 1.78 m/s 224.58 Deg 14.36 µg/m3
2023-01-26 23:00 48.1 µg/m3 3.66 µg/m3 19.37 µg/m3 10.06 µg/m3 8.85 °C 86.25 % 1,004.45 mbar 1.83 m/s 207.72 Deg 3.55 µg/m3
2023-01-26 22:00 47.95 µg/m3 2.57 µg/m3 26.74 µg/m3 14.81 µg/m3 9.03 °C 85.65 % 1,004.82 mbar 2.48 m/s 201.69 Deg 4.49 µg/m3
2023-01-26 21:00 51.87 µg/m3 3.3 µg/m3 18.01 µg/m3 8.89 µg/m3 9.64 °C 81.84 % 1,004.99 mbar 1.73 m/s 206.04 Deg 3.23 µg/m3
2023-01-26 20:00 23.51 µg/m3 2.73 µg/m3 11.41 µg/m3 4.64 µg/m3 9.69 °C 79.18 % 1,004.70 mbar 1.44 m/s 281.16 Deg 0.87 µg/m3
2023-01-26 19:00 17.14 µg/m3 2.54 µg/m3 10.17 µg/m3 3.77 µg/m3 9.14 °C 80.61 % 1,004.76 mbar 1.05 m/s 179.88 Deg 1.11 µg/m3
2023-01-26 18:00 21.23 µg/m3 2.6 µg/m3 10.67 µg/m3 3.82 µg/m3 9.94 °C 72.47 % 1,004.55 mbar 3.62 m/s 283.47 Deg 4.98 µg/m3
2023-01-26 17:00 17.18 µg/m3 2.13 µg/m3 10.97 µg/m3 4.23 µg/m3 11.99 °C 59.39 % 1,003.84 mbar 7.77 m/s 222.16 Deg 3.28 µg/m3
2023-01-26 16:00 13.82 µg/m3 2.64 µg/m3 10.17 µg/m3 3.81 µg/m3 13.06 °C 55.98 % 1,003.92 mbar 7.64 m/s 225.33 Deg 2.24 µg/m3
2023-01-26 15:00 10.98 µg/m3 2.87 µg/m3 10.85 µg/m3 4.2 µg/m3 13.22 °C 56.86 % 1,003.94 mbar 8.74 m/s 222.93 Deg 2.27 µg/m3
2023-01-26 14:00 10.46 µg/m3 2.25 µg/m3 11.15 µg/m3 4.09 µg/m3 13.41 °C 54.97 % 1,004.37 mbar 9.13 m/s 219.98 Deg 2.68 µg/m3
2023-01-26 13:00 13.44 µg/m3 2.85 µg/m3 11.3 µg/m3 3.96 µg/m3 13.47 °C 53.9 % 1,005.17 mbar 9.28 m/s 208.75 Deg 5.28 µg/m3
2023-01-26 12:00 14.59 µg/m3 2.96 µg/m3 13.03 µg/m3 4.23 µg/m3 13.66 °C 53.76 % 1,006.18 mbar 9.05 m/s 211.79 Deg 5.35 µg/m3
2023-01-26 11:00 19.78 µg/m3 3.25 µg/m3 14.94 µg/m3 4.78 µg/m3 13.23 °C 56.74 % 1,006.85 mbar 6.89 m/s 212.92 Deg 6.16 µg/m3
2023-01-26 10:00 95.03 µg/m3 5.65 µg/m3 75.63 µg/m3 27.41 µg/m3 10.58 °C 77.56 % 1,007.00 mbar 1.88 m/s 213.03 Deg 173.98 µg/m3
2023-01-26 09:00 85.15 µg/m3 6.25 µg/m3 55.34 µg/m3 26.7 µg/m3 9.26 °C 82.33 % 1,006.97 mbar 1.73 m/s 210.78 Deg 209.94 µg/m3
2023-01-26 08:00 75.28 µg/m3 4.72 µg/m3 39.88 µg/m3 18.78 µg/m3 8.98 °C 84.53 % 1,007.03 mbar 1.74 m/s 206.75 Deg 130.2 µg/m3
2023-01-26 07:00 72.99 µg/m3 4.14 µg/m3 26.37 µg/m3 11.85 µg/m3 9.58 °C 83.45 % 1,007.26 mbar 1.6 m/s 214.86 Deg 90.69 µg/m3
2023-01-26 06:00 53.94 µg/m3 3.02 µg/m3 14.92 µg/m3 5.72 µg/m3 10.43 °C 77.83 % 1,007.54 mbar 1.68 m/s 230.36 Deg 17.91 µg/m3
2023-01-26 05:00 26.79 µg/m3 2.86 µg/m3 11.41 µg/m3 3.72 µg/m3 10.73 °C 76.03 % 1,007.94 mbar 1.89 m/s 257.53 Deg 3.77 µg/m3
2023-01-26 04:00 23.53 µg/m3 2.33 µg/m3 11.94 µg/m3 4.12 µg/m3 11.41 °C 72.37 % 1,008.31 mbar 2.51 m/s 267.42 Deg 3.96 µg/m3
2023-01-26 03:00 12.36 µg/m3 2.53 µg/m3 10.69 µg/m3 3.9 µg/m3 12.31 °C 61.08 % 1,008.53 mbar 5.2 m/s 228.13 Deg 0.35 µg/m3
2023-01-26 02:00 7.44 µg/m3 3.25 µg/m3 10.79 µg/m3 3.78 µg/m3 12.37 °C 65.85 % 1,008.86 mbar 5.04 m/s 204.23 Deg 0.34 µg/m3
2023-01-26 01:00 6.79 µg/m3 3.08 µg/m3 11.12 µg/m3 3.77 µg/m3 12.46 °C 62.79 % 1,009.46 mbar 4.35 m/s 185.92 Deg 0.65 µg/m3
2023-01-26 00:00 19.97 µg/m3 2.87 µg/m3 13.76 µg/m3 4.84 µg/m3 12.55 °C 65.12 % 1,010.09 mbar 3.55 m/s 185.73 Deg 2.14 µg/m3
2023-01-25 23:00 55.63 µg/m3 3.57 µg/m3 37.49 µg/m3 17.44 µg/m3 11.46 °C 75.88 % 1,010.86 mbar 1.87 m/s 202.43 Deg 17.03 µg/m3
2023-01-25 22:00 67.41 µg/m3 3.98 µg/m3 54.46 µg/m3 26.53 µg/m3 11.24 °C 77.71 % 1,011.43 mbar 1.74 m/s 207.22 Deg 45.18 µg/m3
2023-01-25 21:00 75.45 µg/m3 4.18 µg/m3 70.81 µg/m3 22.23 µg/m3 11.36 °C 76.32 % 1,011.73 mbar 1.19 m/s 217.31 Deg 56.24 µg/m3
2023-01-25 20:00 73.26 µg/m3 3.83 µg/m3 54.09 µg/m3 18.59 µg/m3 11.64 °C 74.22 % 1,011.91 mbar 2.29 m/s 206.98 Deg 30.52 µg/m3
2023-01-25 19:00 71.44 µg/m3 3.53 µg/m3 41.84 µg/m3 13.17 µg/m3 12.72 °C 66.84 % 1,012.01 mbar 1.92 m/s 226.52 Deg 16.8 µg/m3
2023-01-25 18:00 53.34 µg/m3 3.6 µg/m3 24.36 µg/m3 6.57 µg/m3 13.26 °C 60.89 % 1,011.91 mbar 1.7 m/s 275.78 Deg 19.38 µg/m3
2023-01-25 17:00 26.75 µg/m3 3.56 µg/m3 19.14 µg/m3 5.07 µg/m3 13.75 °C 59.31 % 1,012.02 mbar 2 m/s 276.18 Deg 5.13 µg/m3
2023-01-25 16:00 30.94 µg/m3 3.22 µg/m3 17.78 µg/m3 5.36 µg/m3 13.92 °C 59.62 % 1,012.06 mbar 3.27 m/s 259.56 Deg 8.66 µg/m3
2023-01-25 15:00 36.64 µg/m3 3.67 µg/m3 16.08 µg/m3 5.19 µg/m3 14.1 °C 60.03 % 1,012.12 mbar 3.53 m/s 241.79 Deg 20.51 µg/m3
2023-01-25 14:00 46.9 µg/m3 3.84 µg/m3 14.13 µg/m3 5.04 µg/m3 14.12 °C 62.41 % 1,012.56 mbar 4.8 m/s 220.94 Deg 51.97 µg/m3
2023-01-25 13:00 14.99 µg/m3 3.25 µg/m3 14.93 µg/m3 4.6 µg/m3 14.22 °C 61.35 % 1,013.40 mbar 3.47 m/s 210.16 Deg 8.51 µg/m3
2023-01-25 12:00 35.31 µg/m3 3.43 µg/m3 20.83 µg/m3 5.86 µg/m3 13.99 °C 63.46 % 1,014.35 mbar 1.62 m/s 198.48 Deg 12.32 µg/m3
2023-01-25 11:00 62.06 µg/m3 3.9 µg/m3 32.52 µg/m3 11.43 µg/m3 12.98 °C 74.26 % 1,014.94 mbar 0.94 m/s 206.55 Deg 50.99 µg/m3
2023-01-25 10:00 97.99 µg/m3 6.94 µg/m3 52.54 µg/m3 25.34 µg/m3 10.7 °C 86.9 % 1,015.04 mbar 1.94 m/s 201.48 Deg 186.9 µg/m3
2023-01-25 09:00 91.04 µg/m3 6.49 µg/m3 45.44 µg/m3 21.92 µg/m3 9.91 °C 89.28 % 1,014.60 mbar 1.78 m/s 201.38 Deg 209.34 µg/m3
2023-01-25 08:00 81.61 µg/m3 6.5 µg/m3 32.44 µg/m3 15.55 µg/m3 9.69 °C 89.61 % 1,014.31 mbar 1.53 m/s 208.31 Deg 214.1 µg/m3
2023-01-25 07:00 67.23 µg/m3 4.5 µg/m3 23.19 µg/m3 10.68 µg/m3 9.68 °C 89.62 % 1,014.27 mbar 1.51 m/s 195.29 Deg 86.71 µg/m3
2023-01-25 06:00 52.76 µg/m3 3.99 µg/m3 16.78 µg/m3 7.48 µg/m3 9.69 °C 91.71 % 1,014.35 mbar 2.14 m/s 204.11 Deg 32.9 µg/m3
2023-01-25 05:00 41.27 µg/m3 3.8 µg/m3 14.66 µg/m3 6.63 µg/m3 9.67 °C 92.67 % 1,014.58 mbar 2.68 m/s 209.28 Deg 15.47 µg/m3
2023-01-25 04:00 42.68 µg/m3 4.23 µg/m3 14.99 µg/m3 7.03 µg/m3 9.21 °C 93.59 % 1,014.61 mbar 1.68 m/s 208.22 Deg 16.57 µg/m3
2023-01-25 03:00 44.66 µg/m3 3.93 µg/m3 20.25 µg/m3 10.07 µg/m3 8.99 °C 93.29 % 1,015.01 mbar 1.65 m/s 209.23 Deg 20.57 µg/m3
2023-01-25 02:00 46.38 µg/m3 3.71 µg/m3 23.31 µg/m3 12.01 µg/m3 9.08 °C 92.37 % 1,015.24 mbar 2.03 m/s 209.16 Deg 19.2 µg/m3
2023-01-25 01:00 54.95 µg/m3 3.93 µg/m3 22.4 µg/m3 10.77 µg/m3 9.35 °C 91.04 % 1,015.76 mbar 1.91 m/s 208.47 Deg 27.75 µg/m3
2023-01-25 00:00 60.43 µg/m3 4.09 µg/m3 23.54 µg/m3 11.46 µg/m3 9.84 °C 89.14 % 1,016.32 mbar 1.92 m/s 203.88 Deg 39.58 µg/m3
2023-01-24 23:00 54.19 µg/m3 3.46 µg/m3 17.93 µg/m3 8.06 µg/m3 11.04 °C 84.91 % 1,016.78 mbar 0.79 m/s 193.85 Deg 17.98 µg/m3
2023-01-24 22:00 23.2 µg/m3 2.6 µg/m3 12.62 µg/m3 5.37 µg/m3 11.59 °C 79.89 % 1,016.90 mbar 0.36 m/s 238.65 Deg 0.62 µg/m3
2023-01-24 21:00 26.28 µg/m3 3.09 µg/m3 12.67 µg/m3 5.06 µg/m3 11.63 °C 80.03 % 1,016.66 mbar 0.58 m/s 236.57 Deg 0.82 µg/m3
2023-01-24 20:00 28.71 µg/m3 2.58 µg/m3 12.41 µg/m3 4.85 µg/m3 11.57 °C 78.59 % 1,017.00 mbar 0.68 m/s 253.9 Deg 2.35 µg/m3
2023-01-24 19:00 21.34 µg/m3 2.65 µg/m3 11.93 µg/m3 4.61 µg/m3 11.19 °C 80.65 % 1,017.58 mbar 0.54 m/s 242.71 Deg 1.53 µg/m3
2023-01-24 18:00 31.44 µg/m3 3.22 µg/m3 14.55 µg/m3 5.94 µg/m3 11.21 °C 84.78 % 1,017.87 mbar 1.16 m/s 294.08 Deg 7.42 µg/m3
2023-01-24 17:00 64.85 µg/m3 3.15 µg/m3 17.59 µg/m3 7.7 µg/m3 11.39 °C 80.23 % 1,018.09 mbar 0.79 m/s 225.58 Deg 10.16 µg/m3
2023-01-24 16:00 29.22 µg/m3 3.17 µg/m3 17.72 µg/m3 5.47 µg/m3 12.61 °C 68.51 % 1,018.34 mbar 0.8 m/s 264.53 Deg 4.49 µg/m3
2023-01-24 15:00 16.97 µg/m3 1.91 µg/m3 20.62 µg/m3 4.95 µg/m3 13.98 °C 58.99 % 1,017.92 mbar 0.96 m/s 244.98 Deg 1.47 µg/m3
2023-01-24 14:00 14.83 µg/m3 2.47 µg/m3 22.05 µg/m3 4.94 µg/m3 14.16 °C 56.73 % 1,017.72 mbar 1.11 m/s 208.69 Deg 2.41 µg/m3
2023-01-24 13:00 22.73 µg/m3 4.07 µg/m3 20.71 µg/m3 4.69 µg/m3 14.46 °C 57.02 % 1,018.25 mbar 1.18 m/s 209.66 Deg 8.73 µg/m3
2023-01-24 12:00 13.62 µg/m3 3.54 µg/m3 19.71 µg/m3 4.43 µg/m3 14.71 °C 57.63 % 1,019.24 mbar 1.18 m/s 160.8 Deg 3.31 µg/m3
2023-01-24 11:00 20.98 µg/m3 3.68 µg/m3 21.18 µg/m3 4.64 µg/m3 14.04 °C 58.55 % 1,020.20 mbar 1.08 m/s 155.03 Deg 4.44 µg/m3
2023-01-24 10:00 24.3 µg/m3 4.08 µg/m3 21.35 µg/m3 4.69 µg/m3 13.24 °C 63.66 % 1,020.45 mbar 1.03 m/s 236.82 Deg 8.9 µg/m3
2023-01-24 09:00 24.9 µg/m3 3.53 µg/m3 23.99 µg/m3 5.28 µg/m3 12.48 °C 60.42 % 1,020.28 mbar 0.65 m/s 121.02 Deg 3.38 µg/m3
2023-01-24 08:00 45.52 µg/m3 3.76 µg/m3 17.5 µg/m3 5.33 µg/m3 10.76 °C 72.37 % 1,020.03 mbar 0.46 m/s 146.59 Deg 11.85 µg/m3
2023-01-24 07:00 54.25 µg/m3 4.88 µg/m3 21.54 µg/m3 9.42 µg/m3 8.28 °C 84.8 % 1,019.71 mbar 2.49 m/s 213.08 Deg 74.95 µg/m3
2023-01-24 06:00 42.79 µg/m3 4.2 µg/m3 20.19 µg/m3 8.87 µg/m3 7.85 °C 84.35 % 1,019.76 mbar 2.25 m/s 206.73 Deg 23.71 µg/m3
2023-01-24 05:00 42.02 µg/m3 4.27 µg/m3 19.39 µg/m3 8.86 µg/m3 8.28 °C 83.3 % 1,019.74 mbar 2.11 m/s 201.28 Deg 21.17 µg/m3
2023-01-24 04:00 45.92 µg/m3 4.55 µg/m3 21.5 µg/m3 9.48 µg/m3 9.12 °C 81.24 % 1,020.02 mbar 1.82 m/s 206.42 Deg 21.8 µg/m3
2023-01-24 03:00 45.99 µg/m3 3.4 µg/m3 25.77 µg/m3 11.72 µg/m3 8.98 °C 79.36 % 1,020.29 mbar 2.21 m/s 210.35 Deg 18.34 µg/m3
2023-01-24 02:00 53.77 µg/m3 3.42 µg/m3 30.64 µg/m3 12.41 µg/m3 9.05 °C 75.92 % 1,020.20 mbar 1.55 m/s 200.07 Deg 28.53 µg/m3
2023-01-24 01:00 48.41 µg/m3 2.65 µg/m3 30.01 µg/m3 14.14 µg/m3 8.3 °C 77.15 % 1,019.97 mbar 2.56 m/s 207.26 Deg 24.96 µg/m3
2023-01-24 00:00 53.16 µg/m3 2.53 µg/m3 37.94 µg/m3 17.55 µg/m3 8.86 °C 76.22 % 1,020.00 mbar 2.04 m/s 209.1 Deg 45.9 µg/m3
2023-01-23 23:00 56.92 µg/m3 2.39 µg/m3 40.43 µg/m3 19.48 µg/m3 9.23 °C 74.73 % 1,020.02 mbar 1.94 m/s 207.78 Deg 39.96 µg/m3
2023-01-23 22:00 67.01 µg/m3 2.42 µg/m3 53.69 µg/m3 21.55 µg/m3 10 °C 73.63 % 1,019.79 mbar 1.49 m/s 210.09 Deg 60.36 µg/m3
2023-01-23 21:00 77.03 µg/m3 2.62 µg/m3 48.15 µg/m3 17.99 µg/m3 11.03 °C 70 % 1,019.25 mbar 1.39 m/s 209.75 Deg 64.79 µg/m3
2023-01-23 20:00 61.07 µg/m3 3.57 µg/m3 33.01 µg/m3 11.04 µg/m3 11.74 °C 64.94 % 1,018.75 mbar 1.33 m/s 200.01 Deg 15.72 µg/m3
2023-01-23 19:00 57.88 µg/m3 3.63 µg/m3 26.51 µg/m3 7.35 µg/m3 12.26 °C 65.12 % 1,018.31 mbar 1.76 m/s 181.43 Deg 14.47 µg/m3
2023-01-23 18:00 43.36 µg/m3 3.29 µg/m3 20.06 µg/m3 5.46 µg/m3 12.91 °C 59.39 % 1,017.87 mbar 2.59 m/s 195.55 Deg 6.53 µg/m3
2023-01-23 17:00 30.84 µg/m3 3.73 µg/m3 13.45 µg/m3 3.79 µg/m3 13.55 °C 51.16 % 1,017.46 mbar 3.82 m/s 211.7 Deg 9.98 µg/m3
2023-01-23 16:00 20.07 µg/m3 2.77 µg/m3 11.48 µg/m3 3.29 µg/m3 13.8 °C 48.7 % 1,017.12 mbar 4.26 m/s 209.93 Deg 5.38 µg/m3
2023-01-23 15:00 15.47 µg/m3 2.65 µg/m3 11.41 µg/m3 3.18 µg/m3 13.69 °C 51.34 % 1,016.59 mbar 4.89 m/s 207.56 Deg 6.48 µg/m3
2023-01-23 14:00 14.09 µg/m3 2.44 µg/m3 10.32 µg/m3 3.11 µg/m3 13.45 °C 55.58 % 1,016.47 mbar 4.66 m/s 211.84 Deg 4.9 µg/m3
2023-01-23 13:00 13.6 µg/m3 2.6 µg/m3 10.04 µg/m3 3.1 µg/m3 13.46 °C 52.52 % 1,016.51 mbar 5.13 m/s 215.88 Deg 6.07 µg/m3
2023-01-23 12:00 17.97 µg/m3 2.85 µg/m3 12.39 µg/m3 3.29 µg/m3 13.37 °C 52.41 % 1,016.65 mbar 5.19 m/s 215.21 Deg 14.74 µg/m3
2023-01-23 11:00 24.1 µg/m3 2.6 µg/m3 13.15 µg/m3 3.71 µg/m3 13.01 °C 52.74 % 1,016.76 mbar 4.33 m/s 222.5 Deg 8.89 µg/m3
2023-01-23 10:00 67.88 µg/m3 3.8 µg/m3 32.97 µg/m3 9.65 µg/m3 11.56 °C 64.13 % 1,016.49 mbar 2.16 m/s 202.32 Deg 68.3 µg/m3
2023-01-23 09:00 100.23 µg/m3 6.31 µg/m3 38.91 µg/m3 17.1 µg/m3 9.28 °C 78.32 % 1,015.80 mbar 1.56 m/s 205.08 Deg 225.77 µg/m3
2023-01-23 08:00 92.41 µg/m3 6.31 µg/m3 29.6 µg/m3 14.93 µg/m3 8.99 °C 82.39 % 1,015.10 mbar 1.79 m/s 207.65 Deg 237.88 µg/m3
2023-01-23 07:00 79.96 µg/m3 4.13 µg/m3 19.89 µg/m3 9.05 µg/m3 9.6 °C 79.03 % 1,014.71 mbar 1.6 m/s 202.05 Deg 127.65 µg/m3
2023-01-23 06:00 53.3 µg/m3 2.76 µg/m3 14.37 µg/m3 5.04 µg/m3 10.06 °C 73.52 % 1,014.28 mbar 1.48 m/s 200.03 Deg 22.55 µg/m3
2023-01-23 05:00 23.63 µg/m3 2.94 µg/m3 9.89 µg/m3 3.25 µg/m3 9.98 °C 64.12 % 1,013.94 mbar 1.98 m/s 203.15 Deg 2.33 µg/m3
2023-01-23 04:00 19.73 µg/m3 2.88 µg/m3 9.74 µg/m3 3.3 µg/m3 10.13 °C 66.82 % 1,013.71 mbar 3.32 m/s 223.28 Deg 0.67 µg/m3
2023-01-23 03:00 24.02 µg/m3 2.19 µg/m3 9.98 µg/m3 3.44 µg/m3 9.63 °C 72.17 % 1,013.75 mbar 2.78 m/s 209.43 Deg 0.15 µg/m3
2023-01-23 02:00 20.65 µg/m3 2.15 µg/m3 9.56 µg/m3 3.3 µg/m3 9.98 °C 70.93 % 1,013.43 mbar 3.23 m/s 220.37 Deg 0 µg/m3
2023-01-23 01:00 9.22 µg/m3 2.78 µg/m3 7.93 µg/m3 2.59 µg/m3 10.18 °C 66.2 % 1,013.16 mbar 5.38 m/s 226.23 Deg 0.24 µg/m3
2023-01-23 00:00 12.5 µg/m3 2.65 µg/m3 9.15 µg/m3 3.31 µg/m3 9.79 °C 71.04 % 1,013.09 mbar 4.2 m/s 225.09 Deg 0.08 µg/m3
2023-01-22 23:00 8.89 µg/m3 2.81 µg/m3 10.89 µg/m3 3.77 µg/m3 9.29 °C 74.75 % 1,013.03 mbar 2.52 m/s 254.43 Deg 1.28 µg/m3
2023-01-22 22:00 22.95 µg/m3 3.38 µg/m3 14.14 µg/m3 5.06 µg/m3 9.93 °C 69.56 % 1,012.50 mbar 2.79 m/s 258.22 Deg 3.36 µg/m3
2023-01-22 21:00 20.65 µg/m3 3.32 µg/m3 12.44 µg/m3 4.78 µg/m3 9.88 °C 69.12 % 1,011.94 mbar 2.4 m/s 241.15 Deg 0.49 µg/m3
2023-01-22 20:00 17.19 µg/m3 3.46 µg/m3 9.71 µg/m3 3.61 µg/m3 9.44 °C 70.14 % 1,011.57 mbar 3.45 m/s 215.45 Deg 0.82 µg/m3
2023-01-22 19:00 23.37 µg/m3 3.56 µg/m3 9.8 µg/m3 3.57 µg/m3 9.27 °C 73.36 % 1,010.98 mbar 3.27 m/s 210.09 Deg 2.48 µg/m3
2023-01-22 18:00 9.46 µg/m3 2.85 µg/m3 8.66 µg/m3 2.96 µg/m3 9.76 °C 73.8 % 1,010.32 mbar 4.58 m/s 251.72 Deg 0.59 µg/m3
2023-01-22 17:00 11.23 µg/m3 2.63 µg/m3 10.12 µg/m3 3.55 µg/m3 10.7 °C 74.07 % 1,009.85 mbar 2.34 m/s 246.3 Deg 0.63 µg/m3
2023-01-22 16:00 7.57 µg/m3 2.58 µg/m3 9.3 µg/m3 3.22 µg/m3 10.15 °C 81.09 % 1,009.78 mbar 2.24 m/s 265.81 Deg 1.21 µg/m3
2023-01-22 15:00 7.19 µg/m3 2.73 µg/m3 8.97 µg/m3 3.24 µg/m3 9.82 °C 85.32 % 1,009.56 mbar 4.01 m/s 259.47 Deg 1.03 µg/m3
2023-01-22 14:00 5.64 µg/m3 2.9 µg/m3 9.01 µg/m3 3.22 µg/m3 10.3 °C 84.49 % 1,009.11 mbar 4.15 m/s 270.78 Deg 1.06 µg/m3
2023-01-22 13:00 8.02 µg/m3 3.11 µg/m3 10.21 µg/m3 3.95 µg/m3 11.08 °C 84.29 % 1,009.26 mbar 4.42 m/s 260.52 Deg 2.12 µg/m3
2023-01-22 12:00 8.65 µg/m3 3.81 µg/m3 10.56 µg/m3 4.17 µg/m3 11.21 °C 85 % 1,009.21 mbar 3.7 m/s 255.66 Deg 2.75 µg/m3
2023-01-22 11:00 17.75 µg/m3 3.7 µg/m3 13.58 µg/m3 5.72 µg/m3 11.27 °C 85.5 % 1,009.35 mbar 4.29 m/s 243.98 Deg 3.48 µg/m3
2023-01-22 10:00 64.3 µg/m3 3.79 µg/m3 20.86 µg/m3 9.19 µg/m3 12.27 °C 82.34 % 1,009.43 mbar 0.64 m/s 227.61 Deg 29.47 µg/m3
2023-01-22 09:00 62.62 µg/m3 3.73 µg/m3 16.87 µg/m3 7.21 µg/m3 11.1 °C 83.72 % 1,009.70 mbar 1.21 m/s 224.16 Deg 30.77 µg/m3
2023-01-22 08:00 32.73 µg/m3 2.81 µg/m3 16.3 µg/m3 6.96 µg/m3 11.18 °C 82.89 % 1,009.90 mbar 3.52 m/s 186.75 Deg 7.61 µg/m3
2023-01-22 07:00 22.05 µg/m3 2.75 µg/m3 15.27 µg/m3 5.77 µg/m3 12.36 °C 68.45 % 1,009.64 mbar 5.77 m/s 216.6 Deg 4.6 µg/m3
2023-01-22 06:00 38.01 µg/m3 2.81 µg/m3 20.63 µg/m3 6.64 µg/m3 12.74 °C 53.98 % 1,009.02 mbar 1.95 m/s 174.14 Deg 7.09 µg/m3
2023-01-22 05:00 29.63 µg/m3 2.78 µg/m3 18.26 µg/m3 6.04 µg/m3 12.65 °C 52.34 % 1,009.39 mbar 1.99 m/s 175.73 Deg 3.82 µg/m3
2023-01-22 04:00 32.21 µg/m3 2.81 µg/m3 18.44 µg/m3 5.65 µg/m3 12.63 °C 51.22 % 1,010.03 mbar 1.81 m/s 175.57 Deg 3.72 µg/m3
2023-01-22 03:00 27.08 µg/m3 2.52 µg/m3 14.61 µg/m3 5.2 µg/m3 12.84 °C 52.58 % 1,010.67 mbar 3.12 m/s 180.72 Deg 4.79 µg/m3
2023-01-22 02:00 22.62 µg/m3 2.27 µg/m3 13.21 µg/m3 4.87 µg/m3 12.68 °C 54.76 % 1,011.13 mbar 3.12 m/s 182.51 Deg 3.12 µg/m3
2023-01-22 01:00 18.56 µg/m3 2.16 µg/m3 12.92 µg/m3 4.93 µg/m3 12.68 °C 54.12 % 1,011.14 mbar 3.95 m/s 185.66 Deg 2.6 µg/m3
2023-01-22 00:00 27.21 µg/m3 2.31 µg/m3 15.36 µg/m3 6.11 µg/m3 12.52 °C 54.27 % 1,011.48 mbar 3.46 m/s 185.1 Deg 5.58 µg/m3
2023-01-21 23:00 29.22 µg/m3 2.72 µg/m3 16.36 µg/m3 6.46 µg/m3 12.35 °C 53.6 % 1,011.74 mbar 3.27 m/s 186.79 Deg 5.47 µg/m3
2023-01-21 22:00 33.66 µg/m3 2.83 µg/m3 18.91 µg/m3 7.2 µg/m3 12.22 °C 56.62 % 1,011.77 mbar 2.91 m/s 191.77 Deg 3.64 µg/m3
2023-01-21 21:00 28.23 µg/m3 2.93 µg/m3 17.03 µg/m3 6.31 µg/m3 12.35 °C 55.43 % 1,011.76 mbar 3.51 m/s 195.74 Deg 2.94 µg/m3
2023-01-21 20:00 28.24 µg/m3 2.99 µg/m3 18.7 µg/m3 7.12 µg/m3 12.47 °C 59.57 % 1,011.54 mbar 3.66 m/s 207.75 Deg 2.61 µg/m3
2023-01-21 19:00 23.94 µg/m3 2.77 µg/m3 19 µg/m3 7.75 µg/m3 12.72 °C 58.62 % 1,011.15 mbar 4.28 m/s 216.23 Deg 1.22 µg/m3
2023-01-21 18:00 16.53 µg/m3 2.75 µg/m3 17.75 µg/m3 7.26 µg/m3 12.89 °C 54.21 % 1,010.76 mbar 4.2 m/s 227.51 Deg 0.71 µg/m3
2023-01-21 17:00 10.83 µg/m3 2.63 µg/m3 15.23 µg/m3 6.11 µg/m3 13.24 °C 51.46 % 1,010.43 mbar 5.56 m/s 236.13 Deg 2.98 µg/m3
2023-01-21 16:00 10.65 µg/m3 2.57 µg/m3 13.2 µg/m3 5.62 µg/m3 13.43 °C 53.47 % 1,009.96 mbar 7.21 m/s 234.98 Deg 4.88 µg/m3
2023-01-21 15:00 6.93 µg/m3 2.93 µg/m3 11.31 µg/m3 4.57 µg/m3 13.35 °C 55.95 % 1,009.62 mbar 8.5 m/s 229.32 Deg 2.32 µg/m3
2023-01-21 14:00 8.87 µg/m3 2.58 µg/m3 11.91 µg/m3 4.41 µg/m3 13.06 °C 52.83 % 1,009.50 mbar 8.49 m/s 242.42 Deg 3.14 µg/m3
2023-01-21 13:00 8.97 µg/m3 2.69 µg/m3 11.68 µg/m3 4.32 µg/m3 12.77 °C 55.59 % 1,009.71 mbar 7.98 m/s 239.77 Deg 3.67 µg/m3
2023-01-21 12:00 11.61 µg/m3 2.77 µg/m3 13.49 µg/m3 4.96 µg/m3 12.57 °C 55.98 % 1,010.38 mbar 7.26 m/s 241.23 Deg 4.64 µg/m3
2023-01-21 11:00 11.18 µg/m3 2.57 µg/m3 12.54 µg/m3 4.62 µg/m3 12.26 °C 60.53 % 1,010.50 mbar 8.26 m/s 238.63 Deg 3.8 µg/m3
2023-01-21 10:00 15.4 µg/m3 2.95 µg/m3 17.31 µg/m3 6.4 µg/m3 11.75 °C 65.24 % 1,010.20 mbar 5.57 m/s 255.96 Deg 3.75 µg/m3
2023-01-21 09:00 13.99 µg/m3 2.6 µg/m3 15.3 µg/m3 5.63 µg/m3 11.3 °C 65.52 % 1,009.58 mbar 5.63 m/s 259.04 Deg 2.73 µg/m3
2023-01-21 08:00 13.83 µg/m3 2.75 µg/m3 12.83 µg/m3 4.81 µg/m3 11.17 °C 66.2 % 1,009.15 mbar 6.21 m/s 243.89 Deg 1.8 µg/m3
2023-01-21 07:00 13.56 µg/m3 2.39 µg/m3 11.15 µg/m3 4.42 µg/m3 11.28 °C 66.75 % 1,008.64 mbar 6.28 m/s 250.24 Deg 2.22 µg/m3
2023-01-21 06:00 10.39 µg/m3 2.51 µg/m3 11.73 µg/m3 4.69 µg/m3 11.92 °C 61.44 % 1,008.25 mbar 6.77 m/s 235.9 Deg 1.66 µg/m3
2023-01-21 05:00 7.04 µg/m3 3.03 µg/m3 11.28 µg/m3 4.54 µg/m3 11.99 °C 58.94 % 1,008.04 mbar 7.46 m/s 243.25 Deg 1.19 µg/m3
2023-01-21 04:00 5.43 µg/m3 2.96 µg/m3 10.98 µg/m3 4.55 µg/m3 12.09 °C 59.05 % 1,008.24 mbar 8.41 m/s 237.57 Deg 1.17 µg/m3
2023-01-21 03:00 6.21 µg/m3 1.83 µg/m3 10.52 µg/m3 4.35 µg/m3 12.32 °C 60.19 % 1,008.25 mbar 9.4 m/s 232.31 Deg 0.81 µg/m3
2023-01-21 02:00 4.8 µg/m3 2.58 µg/m3 11.24 µg/m3 4.71 µg/m3 12.48 °C 58.11 % 1,008.07 mbar 9.47 m/s 235.59 Deg 0.93 µg/m3
2023-01-21 01:00 4.55 µg/m3 2.78 µg/m3 11.12 µg/m3 4.6 µg/m3 12.61 °C 56.34 % 1,008.03 mbar 9.44 m/s 238.49 Deg 0.99 µg/m3
2023-01-21 00:00 5.43 µg/m3 2.44 µg/m3 11.01 µg/m3 4.56 µg/m3 12.72 °C 57.62 % 1,008.19 mbar 9.03 m/s 238.58 Deg 0.91 µg/m3
2023-01-20 23:00 9.86 µg/m3 2.41 µg/m3 14.59 µg/m3 6.69 µg/m3 12.38 °C 72.37 % 1,008.14 mbar 6.82 m/s 250.99 Deg 1.47 µg/m3
2023-01-20 22:00 10.43 µg/m3 2.44 µg/m3 13.89 µg/m3 6.24 µg/m3 12.67 °C 71.81 % 1,008.00 mbar 7.75 m/s 244.52 Deg 1.59 µg/m3
2023-01-20 21:00 10.75 µg/m3 2.49 µg/m3 11.31 µg/m3 4.56 µg/m3 14.61 °C 57.03 % 1,007.23 mbar 8.79 m/s 231.64 Deg 1.55 µg/m3
2023-01-20 20:00 10.78 µg/m3 1.91 µg/m3 30.37 µg/m3 10.56 µg/m3 14.45 °C 64.58 % 1,006.75 mbar 10.57 m/s 218.29 Deg 0.73 µg/m3
2023-01-20 19:00 12.97 µg/m3 2.21 µg/m3 28.62 µg/m3 9.49 µg/m3 14.73 °C 65.08 % 1,006.57 mbar 9.95 m/s 209.24 Deg 1.5 µg/m3
2023-01-20 18:00 15.1 µg/m3 1.71 µg/m3 16.19 µg/m3 6.06 µg/m3 14.43 °C 63.53 % 1,006.55 mbar 11.31 m/s 209.79 Deg 2.94 µg/m3
2023-01-20 17:00 10 µg/m3 1.67 µg/m3 13.68 µg/m3 5.12 µg/m3 14.28 °C 61.68 % 1,006.73 mbar 12.48 m/s 209.03 Deg 1.04 µg/m3
2023-01-20 16:00 10.77 µg/m3 2.69 µg/m3 19.64 µg/m3 5.79 µg/m3 14.38 °C 57.04 % 1,006.73 mbar 12.44 m/s 207.46 Deg 2.49 µg/m3
2023-01-20 15:00 9.65 µg/m3 2.55 µg/m3 21.66 µg/m3 5.75 µg/m3 14.49 °C 55.2 % 1,006.91 mbar 12.67 m/s 207.67 Deg 2.64 µg/m3
2023-01-20 14:00 9.57 µg/m3 2.72 µg/m3 21.44 µg/m3 5.49 µg/m3 14.7 °C 52.46 % 1,007.53 mbar 12.24 m/s 207.05 Deg 3.63 µg/m3
2023-01-20 13:00 8.24 µg/m3 2.56 µg/m3 19.1 µg/m3 5.35 µg/m3 14.69 °C 51.91 % 1,008.51 mbar 11.26 m/s 204.72 Deg 2.53 µg/m3
2023-01-20 12:00 12.46 µg/m3 2.15 µg/m3 15.47 µg/m3 4.43 µg/m3 14.23 °C 53.52 % 1,009.85 mbar 9.93 m/s 205.44 Deg 4.45 µg/m3
2023-01-20 11:00 11.35 µg/m3 2.19 µg/m3 11.2 µg/m3 3.89 µg/m3 13.74 °C 58.61 % 1,010.73 mbar 8.97 m/s 211.25 Deg 3.83 µg/m3
2023-01-20 10:00 30.04 µg/m3 2.44 µg/m3 14.04 µg/m3 6.08 µg/m3 12.73 °C 64.87 % 1,010.99 mbar 6.74 m/s 210.29 Deg 14.86 µg/m3
2023-01-20 09:00 76.15 µg/m3 3.5 µg/m3 24.82 µg/m3 10.72 µg/m3 10.53 °C 79.71 % 1,011.04 mbar 1.33 m/s 184.5 Deg 60.89 µg/m3
2023-01-20 08:00 68.82 µg/m3 3.1 µg/m3 17.04 µg/m3 7.34 µg/m3 9.93 °C 81.39 % 1,011.14 mbar 1.21 m/s 210.27 Deg 33.1 µg/m3
2023-01-20 07:00 19.88 µg/m3 2.51 µg/m3 11.55 µg/m3 3.88 µg/m3 10 °C 76.14 % 1,011.06 mbar 1.45 m/s 291.88 Deg 2.02 µg/m3
2023-01-20 06:00 21.43 µg/m3 2.1 µg/m3 10.18 µg/m3 3.72 µg/m3 10.27 °C 72.14 % 1,010.71 mbar 4.61 m/s 237.46 Deg 3.58 µg/m3
2023-01-20 05:00 7.18 µg/m3 2.44 µg/m3 11.98 µg/m3 4.4 µg/m3 10.05 °C 77.07 % 1,010.52 mbar 2.77 m/s 269.39 Deg 0.39 µg/m3
2023-01-20 04:00 6.92 µg/m3 2.56 µg/m3 10.77 µg/m3 3.98 µg/m3 10.15 °C 76.04 % 1,010.55 mbar 4.19 m/s 255.03 Deg 0.62 µg/m3
2023-01-20 03:00 4.95 µg/m3 1.79 µg/m3 13.47 µg/m3 4.84 µg/m3 10.8 °C 72.2 % 1,010.60 mbar 4.46 m/s 270.07 Deg 0.22 µg/m3
2023-01-20 02:00 6.8 µg/m3 1.82 µg/m3 10.01 µg/m3 3.68 µg/m3 11.69 °C 60.63 % 1,010.38 mbar 6.33 m/s 245.37 Deg 1.06 µg/m3
2023-01-20 01:00 4.86 µg/m3 2.23 µg/m3 8.96 µg/m3 3.18 µg/m3 11.51 °C 61.62 % 1,010.18 mbar 7.17 m/s 233.75 Deg 0.81 µg/m3
2023-01-20 00:00 7.44 µg/m3 2.71 µg/m3 10.04 µg/m3 3.76 µg/m3 11.68 °C 63.12 % 1,010.48 mbar 6.28 m/s 236.37 Deg 0.77 µg/m3
2023-01-19 23:00 13.53 µg/m3 2.2 µg/m3 11.16 µg/m3 4.37 µg/m3 10.69 °C 69.18 % 1,010.41 mbar 4.95 m/s 228.59 Deg 2.34 µg/m3
2023-01-19 22:00 11.65 µg/m3 2.19 µg/m3 11.16 µg/m3 4.18 µg/m3 10.49 °C 68.76 % 1,010.57 mbar 6.01 m/s 261.53 Deg 2.92 µg/m3
2023-01-19 21:00 9.46 µg/m3 2.14 µg/m3 12.18 µg/m3 4.3 µg/m3 12.04 °C 59.82 % 1,009.43 mbar 4.69 m/s 255.56 Deg 0.64 µg/m3
2023-01-19 20:00 12.97 µg/m3 2.07 µg/m3 12.98 µg/m3 4.68 µg/m3 11.09 °C 71.25 % 1,008.98 mbar 3.56 m/s 260.18 Deg 3.55 µg/m3
2023-01-19 19:00 17.58 µg/m3 1.83 µg/m3 11.75 µg/m3 4.55 µg/m3 10.35 °C 75.94 % 1,008.60 mbar 4.18 m/s 241.96 Deg 0.75 µg/m3
2023-01-19 18:00 16.47 µg/m3 2.32 µg/m3 11.12 µg/m3 3.89 µg/m3 11.16 °C 70.64 % 1,007.76 mbar 5.32 m/s 266.83 Deg 2.95 µg/m3
2023-01-19 17:00 39.95 µg/m3 2.5 µg/m3 12.91 µg/m3 5.05 µg/m3 10.75 °C 75.3 % 1,007.14 mbar 3.65 m/s 231.59 Deg 8.72 µg/m3
2023-01-19 16:00 32.76 µg/m3 2.39 µg/m3 10.57 µg/m3 4.01 µg/m3 9.28 °C 79.44 % 1,007.37 mbar 4.82 m/s 220.19 Deg 5.12 µg/m3
2023-01-19 15:00 31.04 µg/m3 1.81 µg/m3 11.97 µg/m3 4.79 µg/m3 10.13 °C 82.49 % 1,007.47 mbar 5.07 m/s 226.24 Deg 10.06 µg/m3
2023-01-19 14:00 28.86 µg/m3 1.66 µg/m3 12.95 µg/m3 4.98 µg/m3 11.15 °C 79.88 % 1,006.98 mbar 2.36 m/s 237.57 Deg 3.69 µg/m3
2023-01-19 13:00 26.93 µg/m3 2 µg/m3 11.47 µg/m3 4.3 µg/m3 11.6 °C 79.12 % 1,007.37 mbar 3.92 m/s 228.55 Deg 4.11 µg/m3
2023-01-19 12:00 39.98 µg/m3 2.22 µg/m3 13.8 µg/m3 5.59 µg/m3 12.16 °C 76.23 % 1,008.13 mbar 4.76 m/s 228.04 Deg 9.07 µg/m3
2023-01-19 11:00 29.09 µg/m3 2.35 µg/m3 16.94 µg/m3 5.47 µg/m3 14.09 °C 60.77 % 1,007.99 mbar 4.41 m/s 228.9 Deg 13.32 µg/m3
2023-01-19 10:00 38.91 µg/m3 2.77 µg/m3 21.13 µg/m3 6.51 µg/m3 14.09 °C 58.74 % 1,007.77 mbar 4.11 m/s 228.8 Deg 11.13 µg/m3
2023-01-19 09:00 78.27 µg/m3 3.54 µg/m3 40.69 µg/m3 12.36 µg/m3 13.33 °C 61.29 % 1,007.40 mbar 2.09 m/s 201.38 Deg 54.85 µg/m3
2023-01-19 08:00 81.61 µg/m3 3.69 µg/m3 34.03 µg/m3 10.83 µg/m3 12.94 °C 66.67 % 1,007.16 mbar 2.27 m/s 208.48 Deg 61.27 µg/m3
2023-01-19 07:00 59.94 µg/m3 2.43 µg/m3 23.97 µg/m3 8.15 µg/m3 13.11 °C 67.55 % 1,006.61 mbar 2.35 m/s 224.55 Deg 25.5 µg/m3
2023-01-19 06:00 26.85 µg/m3 1.26 µg/m3 18.03 µg/m3 6.26 µg/m3 13.31 °C 67.86 % 1,006.15 mbar 2.6 m/s 230.85 Deg 0.53 µg/m3
2023-01-19 05:00 7.2 µg/m3 1.73 µg/m3 15.62 µg/m3 5.05 µg/m3 13.68 °C 67.64 % 1,005.62 mbar 2.18 m/s 234.57 Deg 2.78 µg/m3
2023-01-19 04:00 3.99 µg/m3 2.37 µg/m3 16.66 µg/m3 5.52 µg/m3 14.02 °C 72.21 % 1,005.79 mbar 2.38 m/s 242.23 Deg 0.05 µg/m3
2023-01-19 03:00 5.92 µg/m3 2.6 µg/m3 20.29 µg/m3 6.69 µg/m3 14.36 °C 73.97 % 1,005.60 mbar 2.34 m/s 259.92 Deg 0.69 µg/m3
2023-01-19 02:00 3.04 µg/m3 2.05 µg/m3 21.42 µg/m3 9.16 µg/m3 14.76 °C 79.47 % 1,005.44 mbar 3.08 m/s 269.69 Deg 0.01 µg/m3
2023-01-19 01:00 2.64 µg/m3 0.7 µg/m3 84.95 µg/m3 28.74 µg/m3 16.21 °C 74.17 % 1,004.64 mbar 3.76 m/s 267.41 Deg 0.27 µg/m3
2023-01-19 00:00 18.75 µg/m3 2.13 µg/m3 184.56 µg/m3 70.78 µg/m3 17.55 °C 67.33 % 1,004.14 mbar 6.39 m/s 206.58 Deg 2 µg/m3
2023-01-18 23:00 19.28 µg/m3 2.25 µg/m3 201.42 µg/m3 71.01 µg/m3 17.62 °C 63.37 % 1,003.92 mbar 5.45 m/s 186.34 Deg 5.22 µg/m3
2023-01-18 22:00 21.79 µg/m3 1.94 µg/m3 170.13 µg/m3 59.75 µg/m3 17.45 °C 63.55 % 1,004.03 mbar 5.67 m/s 195.84 Deg 5.62 µg/m3
2023-01-18 21:00 20.59 µg/m3 1.52 µg/m3 105.8 µg/m3 37.55 µg/m3 16.94 °C 71.56 % 1,004.08 mbar 5.18 m/s 186.76 Deg 4.35 µg/m3
2023-01-18 20:00 18.69 µg/m3 1.88 µg/m3 62.49 µg/m3 23.31 µg/m3 16.99 °C 75.94 % 1,003.79 mbar 5.69 m/s 187.34 Deg 4.63 µg/m3
2023-01-18 19:00 21.44 µg/m3 1.57 µg/m3 70.76 µg/m3 26.33 µg/m3 17.22 °C 76.08 % 1,003.40 mbar 5.65 m/s 184.56 Deg 6.02 µg/m3
2023-01-18 18:00 23.6 µg/m3 1.44 µg/m3 81.1 µg/m3 29.71 µg/m3 17.3 °C 74.83 % 1,003.07 mbar 5.67 m/s 189.52 Deg 5 µg/m3
2023-01-18 17:00 23.08 µg/m3 1.38 µg/m3 80.59 µg/m3 30.51 µg/m3 17.71 °C 73.14 % 1,002.86 mbar 6.95 m/s 214.78 Deg 6 µg/m3
2023-01-18 16:00 17.59 µg/m3 1.67 µg/m3 70.72 µg/m3 28.36 µg/m3 18.2 °C 70.35 % 1,002.79 mbar 8.37 m/s 207.25 Deg 4.95 µg/m3
2023-01-18 15:00 14.39 µg/m3 1.73 µg/m3 59.52 µg/m3 24.6 µg/m3 18.4 °C 68.63 % 1,002.95 mbar 10.48 m/s 206.73 Deg 5.79 µg/m3
2023-01-18 14:00 15.15 µg/m3 1.45 µg/m3 59.78 µg/m3 24.97 µg/m3 18.45 °C 68.51 % 1,003.18 mbar 10.74 m/s 209.07 Deg 5.95 µg/m3
2023-01-18 13:00 12.49 µg/m3 1.28 µg/m3 64.83 µg/m3 28.15 µg/m3 18.4 °C 67.4 % 1,003.63 mbar 10.19 m/s 206.26 Deg 4.62 µg/m3
2023-01-18 12:00 19.72 µg/m3 1.84 µg/m3 74.82 µg/m3 31.95 µg/m3 18.2 °C 67.54 % 1,004.23 mbar 9.93 m/s 203.11 Deg 14.83 µg/m3
2023-01-18 11:00 31.36 µg/m3 2 µg/m3 96.43 µg/m3 40.64 µg/m3 17.87 °C 69.87 % 1,004.61 mbar 8.24 m/s 205.34 Deg 17.35 µg/m3
2023-01-18 10:00 36.88 µg/m3 2.33 µg/m3 111.89 µg/m3 45.77 µg/m3 17.53 °C 72.3 % 1,004.48 mbar 7.63 m/s 204.31 Deg 23.63 µg/m3
2023-01-18 09:00 38.88 µg/m3 -0.8 µg/m3 105.29 µg/m3 38.28 µg/m3 17.04 °C 70.32 % 1,004.02 mbar 6.79 m/s 210.83 Deg 15.23 µg/m3
2023-01-18 08:00 56.5 µg/m3 2.57 µg/m3 59.25 µg/m3 23.63 µg/m3 16.41 °C 73.62 % 1,003.33 mbar 7.89 m/s 207.63 Deg 61.67 µg/m3
2023-01-18 07:00 44.73 µg/m3 2.04 µg/m3 40.25 µg/m3 15.92 µg/m3 16.16 °C 72.24 % 1,002.84 mbar 8 m/s 209.79 Deg 32.73 µg/m3
2023-01-18 06:00 23.38 µg/m3 2.02 µg/m3 37 µg/m3 14.6 µg/m3 16.28 °C 70.41 % 1,002.61 mbar 8.08 m/s 212.77 Deg 8.73 µg/m3
2023-01-18 05:00 32.54 µg/m3 2.46 µg/m3 41.82 µg/m3 16.15 µg/m3 16.53 °C 67.85 % 1,002.86 mbar 7.57 m/s 204.69 Deg 7.06 µg/m3
2023-01-18 04:00 37.69 µg/m3 2.54 µg/m3 54.73 µg/m3 21.82 µg/m3 16.61 °C 65.35 % 1,003.25 mbar 7.4 m/s 204.43 Deg 9.46 µg/m3
2023-01-18 03:00 37.56 µg/m3 2.7 µg/m3 90.4 µg/m3 38.42 µg/m3 16.73 °C 64.19 % 1,003.59 mbar 7.95 m/s 202.67 Deg 9.46 µg/m3
2023-01-18 02:00 27.83 µg/m3 2.45 µg/m3 112.92 µg/m3 48.05 µg/m3 16.98 °C 61.77 % 1,003.68 mbar 8.4 m/s 198.23 Deg 5.53 µg/m3
2023-01-18 01:00 28.12 µg/m3 2.26 µg/m3 140.45 µg/m3 57.27 µg/m3 17.05 °C 63.41 % 1,004.08 mbar 7.6 m/s 206.45 Deg 6.18 µg/m3
2023-01-18 00:00 21.41 µg/m3 2.21 µg/m3 143.72 µg/m3 56.43 µg/m3 17.2 °C 62.86 % 1,004.42 mbar 7.57 m/s 214.36 Deg 4.83 µg/m3
2023-01-17 23:00 13.61 µg/m3 1.99 µg/m3 143.56 µg/m3 56.2 µg/m3 17.39 °C 61.37 % 1,004.42 mbar 8 m/s 213.51 Deg 2.2 µg/m3
2023-01-17 22:00 11.41 µg/m3 2.14 µg/m3 111.12 µg/m3 43.21 µg/m3 17.69 °C 58.54 % 1,004.25 mbar 8.75 m/s 211.57 Deg 2.07 µg/m3
2023-01-17 21:00 8.73 µg/m3 1.72 µg/m3 73.47 µg/m3 28 µg/m3 17.89 °C 58.3 % 1,003.95 mbar 9.6 m/s 212.35 Deg 1.04 µg/m3
2023-01-17 20:00 12.88 µg/m3 1.61 µg/m3 47.14 µg/m3 16.91 µg/m3 17.98 °C 58.97 % 1,003.65 mbar 9.53 m/s 214.01 Deg 2.66 µg/m3
2023-01-17 19:00 23.3 µg/m3 1.51 µg/m3 37.37 µg/m3 15.38 µg/m3 17.69 °C 63.6 % 1,003.14 mbar 8.35 m/s 202.12 Deg 5.51 µg/m3
2023-01-17 18:00 21.53 µg/m3 1.52 µg/m3 27.39 µg/m3 11.2 µg/m3 17.51 °C 64.25 % 1,002.67 mbar 8.83 m/s 204.52 Deg 4.16 µg/m3
2023-01-17 17:00 18.52 µg/m3 1.65 µg/m3 22.46 µg/m3 8.91 µg/m3 17.77 °C 65.24 % 1,002.61 mbar 10.24 m/s 205.6 Deg 3.86 µg/m3
2023-01-17 16:00 13.39 µg/m3 1.81 µg/m3 21.19 µg/m3 8.26 µg/m3 17.98 °C 68.16 % 1,002.90 mbar 10.61 m/s 207.49 Deg 3.94 µg/m3
2023-01-17 15:00 11.58 µg/m3 0.15 µg/m3 20.16 µg/m3 7.8 µg/m3 17.98 °C 68.81 % 1,003.17 mbar 11.52 m/s 206.84 Deg 3.47 µg/m3
2023-01-17 14:00 12.85 µg/m3 1.9 µg/m3 21.02 µg/m3 8.36 µg/m3 18.06 °C 69.19 % 1,003.83 mbar 11.32 m/s 204.15 Deg 4.88 µg/m3
2023-01-17 13:00 10.89 µg/m3 1.99 µg/m3 22.76 µg/m3 8.28 µg/m3 17.89 °C 69.01 % 1,004.47 mbar 11.75 m/s 209.59 Deg 4.34 µg/m3
2023-01-17 12:00 11.71 µg/m3 2.15 µg/m3 18.88 µg/m3 7.32 µg/m3 17.53 °C 70.02 % 1,005.33 mbar 11.45 m/s 207.24 Deg 4.99 µg/m3
2023-01-17 11:00 18.64 µg/m3 2.42 µg/m3 18.66 µg/m3 7.19 µg/m3 17.43 °C 70.49 % 1,006.01 mbar 11.47 m/s 205.21 Deg 13.58 µg/m3
2023-01-17 10:00 26.63 µg/m3 2.72 µg/m3 22.2 µg/m3 8.31 µg/m3 17.1 °C 67.43 % 1,006.26 mbar 10.51 m/s 204.66 Deg 29.03 µg/m3
2023-01-17 09:00 16.51 µg/m3 2.35 µg/m3 17.33 µg/m3 7.26 µg/m3 16.8 °C 68.72 % 1,006.52 mbar 9.91 m/s 202.61 Deg 3.33 µg/m3
2023-01-17 08:00 21.04 µg/m3 2.36 µg/m3 17.37 µg/m3 7.61 µg/m3 16.5 °C 69.56 % 1,006.65 mbar 9.28 m/s 203.11 Deg 1.97 µg/m3
2023-01-17 07:00 16.94 µg/m3 2.37 µg/m3 21.13 µg/m3 9.49 µg/m3 16.22 °C 72.18 % 1,006.95 mbar 7.78 m/s 207.73 Deg 1.32 µg/m3
2023-01-17 06:00 11.23 µg/m3 2.09 µg/m3 23.72 µg/m3 10.57 µg/m3 16.24 °C 73.42 % 1,007.11 mbar 8.21 m/s 210.85 Deg 0.7 µg/m3
2023-01-17 05:00 10.29 µg/m3 2.25 µg/m3 19.92 µg/m3 9.46 µg/m3 16.2 °C 75.15 % 1,007.25 mbar 8 m/s 211.87 Deg 0.35 µg/m3
2023-01-17 04:00 9.23 µg/m3 2.3 µg/m3 21.43 µg/m3 10.13 µg/m3 16.12 °C 76.41 % 1,007.86 mbar 6.75 m/s 207.18 Deg 0.61 µg/m3
2023-01-17 03:00 9.5 µg/m3 2.19 µg/m3 33.04 µg/m3 14.36 µg/m3 16.07 °C 75.3 % 1,008.42 mbar 6.61 m/s 206.36 Deg 1.58 µg/m3
2023-01-17 02:00 8.6 µg/m3 2.26 µg/m3 30.45 µg/m3 11.86 µg/m3 16.09 °C 74.34 % 1,008.94 mbar 5.52 m/s 207.39 Deg 0 µg/m3
2023-01-17 01:00 7.1 µg/m3 2.17 µg/m3 25.95 µg/m3 10.09 µg/m3 16.13 °C 73.06 % 1,009.40 mbar 5.52 m/s 201.93 Deg 1.05 µg/m3
2023-01-17 00:00 5.92 µg/m3 1.8 µg/m3 19.12 µg/m3 8.4 µg/m3 15.89 °C 77.83 % 1,009.96 mbar 4.85 m/s 193.57 Deg 0.14 µg/m3
2023-01-16 23:00 8.79 µg/m3 1.52 µg/m3 17.42 µg/m3 7.94 µg/m3 15.79 °C 79.01 % 1,010.47 mbar 4.51 m/s 192.41 Deg 0.55 µg/m3
2023-01-16 22:00 12.07 µg/m3 1.76 µg/m3 18.37 µg/m3 8.52 µg/m3 15.92 °C 79.12 % 1,010.77 mbar 4.59 m/s 205.62 Deg 0.25 µg/m3
2023-01-16 21:00 15.24 µg/m3 1.94 µg/m3 16.38 µg/m3 7.54 µg/m3 16.03 °C 76.18 % 1,010.68 mbar 4.96 m/s 211.4 Deg 0.34 µg/m3
2023-01-16 20:00 19.73 µg/m3 1.83 µg/m3 16.34 µg/m3 7.82 µg/m3 16.08 °C 73.49 % 1,010.56 mbar 5.46 m/s 216.22 Deg 1.18 µg/m3
2023-01-16 19:00 28.12 µg/m3 1.66 µg/m3 17.73 µg/m3 8.83 µg/m3 16.23 °C 71.67 % 1,010.42 mbar 5.3 m/s 222.98 Deg 3.34 µg/m3
2023-01-16 18:00 35.37 µg/m3 2.15 µg/m3 18.26 µg/m3 9.43 µg/m3 16.47 °C 70.74 % 1,009.97 mbar 6.06 m/s 213.99 Deg 7.38 µg/m3
2023-01-16 17:00 19.98 µg/m3 2.03 µg/m3 14.53 µg/m3 7.14 µg/m3 16.98 °C 66.74 % 1,009.87 mbar 7.26 m/s 223.07 Deg 3.12 µg/m3
2023-01-16 16:00 14.65 µg/m3 2.28 µg/m3 15.09 µg/m3 7.11 µg/m3 17.38 °C 62.73 % 1,009.87 mbar 6.88 m/s 233.87 Deg 4.62 µg/m3
2023-01-16 15:00 8.72 µg/m3 2.44 µg/m3 18.48 µg/m3 7.47 µg/m3 17.61 °C 61.78 % 1,010.10 mbar 5.66 m/s 234.81 Deg 1.72 µg/m3
2023-01-16 14:00 9.07 µg/m3 2.66 µg/m3 20.13 µg/m3 7.52 µg/m3 17.96 °C 52.91 % 1,010.57 mbar 4.28 m/s 246.49 Deg 1.54 µg/m3
2023-01-16 13:00 9.37 µg/m3 2.43 µg/m3 27.49 µg/m3 8.81 µg/m3 17.48 °C 59.59 % 1,011.40 mbar 2.88 m/s 233.83 Deg 2.42 µg/m3
2023-01-16 12:00 9.12 µg/m3 2.38 µg/m3 17.81 µg/m3 7.55 µg/m3 16.66 °C 67.66 % 1,012.37 mbar 5.14 m/s 221.49 Deg 2.08 µg/m3
2023-01-16 11:00 17.68 µg/m3 2.44 µg/m3 17 µg/m3 7.41 µg/m3 16.44 °C 70.34 % 1,012.85 mbar 6.2 m/s 220.77 Deg 4.33 µg/m3
2023-01-16 10:00 22.27 µg/m3 3.26 µg/m3 16.6 µg/m3 7.67 µg/m3 16.24 °C 72.16 % 1,013.39 mbar 6.5 m/s 223.23 Deg 5.76 µg/m3
2023-01-16 09:00 67.54 µg/m3 4.05 µg/m3 35.26 µg/m3 12.96 µg/m3 15.5 °C 76.54 % 1,013.24 mbar 4.12 m/s 203.58 Deg 29.03 µg/m3
2023-01-16 08:00 59.51 µg/m3 3.77 µg/m3 39.09 µg/m3 12.29 µg/m3 14.87 °C 77.57 % 1,013.19 mbar 2.91 m/s 191 Deg 13.27 µg/m3
2023-01-16 07:00 44.3 µg/m3 3.71 µg/m3 23.92 µg/m3 10.62 µg/m3 14.8 °C 78.84 % 1,013.44 mbar 2.16 m/s 180.25 Deg 5.44 µg/m3
2023-01-16 06:00 33.42 µg/m3 2.94 µg/m3 22.48 µg/m3 9.95 µg/m3 15.17 °C 78.48 % 1,013.57 mbar 3.59 m/s 195.01 Deg 4.73 µg/m3
2023-01-16 05:00 37.18 µg/m3 3.89 µg/m3 30.21 µg/m3 12.85 µg/m3 14.78 °C 78.2 % 1,013.71 mbar 2.48 m/s 183.78 Deg 19.66 µg/m3
2023-01-16 04:00 30.56 µg/m3 2.98 µg/m3 46.31 µg/m3 22.07 µg/m3 14.63 °C 81.22 % 1,014.17 mbar 2.05 m/s 177.17 Deg 2.55 µg/m3
2023-01-16 03:00 34.04 µg/m3 3.13 µg/m3 32.77 µg/m3 15.13 µg/m3 14.58 °C 82.19 % 1,014.97 mbar 2.17 m/s 180.86 Deg 3.82 µg/m3
2023-01-16 02:00 38.87 µg/m3 3.49 µg/m3 17.59 µg/m3 7.76 µg/m3 14.41 °C 80.6 % 1,015.67 mbar 2.27 m/s 192.03 Deg 17.1 µg/m3
2023-01-16 01:00 14.13 µg/m3 2.95 µg/m3 13.36 µg/m3 5.43 µg/m3 14.04 °C 79.22 % 1,016.20 mbar 1.87 m/s 187.52 Deg 0.49 µg/m3
2023-01-16 00:00 23.24 µg/m3 3.27 µg/m3 13.34 µg/m3 5.5 µg/m3 13.78 °C 80.31 % 1,016.87 mbar 1.89 m/s 192.74 Deg 0.35 µg/m3
2023-01-15 23:00 36.44 µg/m3 3.15 µg/m3 13.97 µg/m3 5.77 µg/m3 13.68 °C 79.4 % 1,017.28 mbar 1.24 m/s 184.33 Deg 0.77 µg/m3
2023-01-15 22:00 40.07 µg/m3 3.29 µg/m3 16.04 µg/m3 6.48 µg/m3 13.84 °C 76.65 % 1,017.56 mbar 1.43 m/s 175.38 Deg 3.95 µg/m3
2023-01-15 21:00 29.85 µg/m3 2.94 µg/m3 17.14 µg/m3 7 µg/m3 14.16 °C 75.12 % 1,017.80 mbar 1.65 m/s 182.64 Deg 2.82 µg/m3
2023-01-15 20:00 40.09 µg/m3 2.63 µg/m3 19.27 µg/m3 8.23 µg/m3 14.59 °C 75.18 % 1,017.98 mbar 2.5 m/s 193.2 Deg 2.33 µg/m3
2023-01-15 19:00 42.9 µg/m3 2.85 µg/m3 23.31 µg/m3 10.75 µg/m3 14.92 °C 72.83 % 1,017.90 mbar 2.31 m/s 203.15 Deg 3.12 µg/m3
2023-01-15 18:00 64.16 µg/m3 3.55 µg/m3 17.89 µg/m3 7.98 µg/m3 15.52 °C 69.2 % 1,017.78 mbar 3.16 m/s 223.32 Deg 54.54 µg/m3
2023-01-15 17:00 32.43 µg/m3 2.24 µg/m3 14.95 µg/m3 6.17 µg/m3 15.9 °C 67.22 % 1,017.76 mbar 3.35 m/s 254.79 Deg 32.69 µg/m3
2023-01-15 16:00 25.33 µg/m3 2.61 µg/m3 12.14 µg/m3 4.9 µg/m3 16.21 °C 64.05 % 1,017.78 mbar 4.55 m/s 255.76 Deg 17.68 µg/m3
2023-01-15 15:00 15.54 µg/m3 2.71 µg/m3 11.27 µg/m3 4.31 µg/m3 16.28 °C 63.44 % 1,017.97 mbar 4.46 m/s 255.28 Deg 14.03 µg/m3
2023-01-15 14:00 23.88 µg/m3 3.27 µg/m3 13.61 µg/m3 5.06 µg/m3 16.45 °C 62.92 % 1,018.31 mbar 3.39 m/s 278.79 Deg 26.34 µg/m3
2023-01-15 13:00 4.38 µg/m3 2.35 µg/m3 15.99 µg/m3 5.7 µg/m3 16.3 °C 64.1 % 1,018.83 mbar 1.85 m/s 318.79 Deg 1.49 µg/m3
2023-01-15 12:00 4.31 µg/m3 2.23 µg/m3 15.88 µg/m3 5.43 µg/m3 16.08 °C 63.56 % 1,019.58 mbar 1.9 m/s 331.13 Deg 1.3 µg/m3
2023-01-15 11:00 8.68 µg/m3 2.25 µg/m3 17.77 µg/m3 5.88 µg/m3 15.64 °C 66.02 % 1,020.12 mbar 1.42 m/s 338.15 Deg 2.29 µg/m3
2023-01-15 10:00 6.56 µg/m3 2.49 µg/m3 17.73 µg/m3 6.12 µg/m3 15.25 °C 66.01 % 1,019.87 mbar 1.61 m/s 321.72 Deg 1.64 µg/m3
2023-01-15 09:00 18.81 µg/m3 3.09 µg/m3 19.03 µg/m3 6.93 µg/m3 14.96 °C 66.47 % 1,019.55 mbar 1.45 m/s 335.26 Deg 14.94 µg/m3
2023-01-15 08:00 14.27 µg/m3 2.83 µg/m3 19.37 µg/m3 6.71 µg/m3 14.68 °C 68.05 % 1,019.37 mbar 1.3 m/s 298.63 Deg 1.4 µg/m3
2023-01-15 07:00 9.53 µg/m3 2.75 µg/m3 18.08 µg/m3 5.98 µg/m3 14.87 °C 65.93 % 1,018.99 mbar 1.34 m/s 333.93 Deg 1.88 µg/m3
2023-01-15 06:00 2.97 µg/m3 2.67 µg/m3 17.57 µg/m3 6.09 µg/m3 15.01 °C 65.16 % 1,018.71 mbar 1.57 m/s 324.23 Deg -0.1 µg/m3
2023-01-15 05:00 1.17 µg/m3 2.42 µg/m3 16.95 µg/m3 6.21 µg/m3 15.14 °C 65.59 % 1,018.49 mbar 1.93 m/s 330.29 Deg -0.21 µg/m3
2023-01-15 04:00 1.16 µg/m3 2.67 µg/m3 17.05 µg/m3 6.38 µg/m3 15.29 °C 64.03 % 1,018.56 mbar 1.99 m/s 325.8 Deg 0.03 µg/m3
2023-01-15 03:00 4.94 µg/m3 2.11 µg/m3 18.71 µg/m3 7.24 µg/m3 15.29 °C 68.13 % 1,018.64 mbar 2.1 m/s 314.43 Deg 0.81 µg/m3
2023-01-15 02:00 2.54 µg/m3 2.22 µg/m3 17.63 µg/m3 6.82 µg/m3 15.49 °C 66.1 % 1,018.66 mbar 1.91 m/s 315.84 Deg 0.13 µg/m3
2023-01-15 01:00 4.09 µg/m3 2.53 µg/m3 18.36 µg/m3 6.65 µg/m3 15.58 °C 66.05 % 1,018.85 mbar 1.64 m/s 325.08 Deg 0.75 µg/m3
2023-01-15 00:00 10.11 µg/m3 2.56 µg/m3 19.51 µg/m3 6.72 µg/m3 15.59 °C 68.22 % 1,019.16 mbar 1.45 m/s 297.49 Deg 1.82 µg/m3
2023-01-14 23:00 8.64 µg/m3 2.26 µg/m3 20.71 µg/m3 6.88 µg/m3 15.92 °C 66.58 % 1,019.04 mbar 1.49 m/s 306.29 Deg 1.61 µg/m3
2023-01-14 22:00 4.25 µg/m3 2.26 µg/m3 19.39 µg/m3 6.76 µg/m3 16.1 °C 65.93 % 1,018.90 mbar 1.9 m/s 312.81 Deg 0.62 µg/m3
2023-01-14 21:00 9.38 µg/m3 2.13 µg/m3 20.93 µg/m3 7.95 µg/m3 15.79 °C 75.72 % 1,018.81 mbar 2.64 m/s 275.57 Deg 0.81 µg/m3
2023-01-14 20:00 13.01 µg/m3 2.25 µg/m3 20.44 µg/m3 7.82 µg/m3 15.86 °C 74.86 % 1,018.56 mbar 2.67 m/s 263.91 Deg 0.95 µg/m3
2023-01-14 19:00 23.36 µg/m3 2.29 µg/m3 20.32 µg/m3 7.88 µg/m3 15.59 °C 73.02 % 1,018.28 mbar 2.43 m/s 236.67 Deg 1.02 µg/m3
2023-01-14 18:00 16.88 µg/m3 2.34 µg/m3 19.51 µg/m3 7.83 µg/m3 15.65 °C 71.9 % 1,017.92 mbar 2.64 m/s 242.03 Deg 1.13 µg/m3
2023-01-14 17:00 13.92 µg/m3 2.14 µg/m3 17.03 µg/m3 6.54 µg/m3 16.14 °C 69 % 1,017.60 mbar 3.99 m/s 266.42 Deg 2.44 µg/m3
2023-01-14 16:00 6.33 µg/m3 1.92 µg/m3 18.24 µg/m3 6.51 µg/m3 16.53 °C 69.52 % 1,017.37 mbar 3.64 m/s 279.34 Deg 1.48 µg/m3
2023-01-14 15:00 6.14 µg/m3 1.81 µg/m3 17.97 µg/m3 6.83 µg/m3 16.78 °C 71.49 % 1,017.21 mbar 4.92 m/s 270.27 Deg 1.44 µg/m3
2023-01-14 14:00 7.99 µg/m3 2.52 µg/m3 19.83 µg/m3 7.4 µg/m3 16.86 °C 69.35 % 1,017.37 mbar 3.74 m/s 272.55 Deg 2.42 µg/m3
2023-01-14 13:00 8.3 µg/m3 2.66 µg/m3 21.74 µg/m3 7.88 µg/m3 16.68 °C 69.73 % 1,018.03 mbar 3.58 m/s 280.81 Deg 2.13 µg/m3
2023-01-14 12:00 9.41 µg/m3 2.27 µg/m3 21.58 µg/m3 8.01 µg/m3 16.7 °C 72.84 % 1,018.86 mbar 4.4 m/s 275.69 Deg 3 µg/m3
2023-01-14 11:00 11.23 µg/m3 1.96 µg/m3 22.05 µg/m3 8.44 µg/m3 16.57 °C 73.28 % 1,019.20 mbar 4.08 m/s 271.38 Deg 2.76 µg/m3
2023-01-14 10:00 19.37 µg/m3 2.57 µg/m3 23.35 µg/m3 9.07 µg/m3 16.07 °C 76.32 % 1,018.89 mbar 3.6 m/s 267.02 Deg 10.25 µg/m3
2023-01-14 09:00 33.66 µg/m3 2.93 µg/m3 22.16 µg/m3 9.77 µg/m3 15.18 °C 80.78 % 1,018.47 mbar 3.03 m/s 249.09 Deg 7.25 µg/m3
2023-01-14 08:00 40.41 µg/m3 2.66 µg/m3 19.78 µg/m3 8.6 µg/m3 14.8 °C 82.36 % 1,018.29 mbar 2.28 m/s 232.33 Deg 4.7 µg/m3
2023-01-14 07:00 33.67 µg/m3 2.39 µg/m3 17.83 µg/m3 7.85 µg/m3 14.73 °C 82.42 % 1,018.30 mbar 2.44 m/s 236.69 Deg 2.84 µg/m3
2023-01-14 06:00 27.25 µg/m3 2.55 µg/m3 17.82 µg/m3 7.78 µg/m3 14.99 °C 81.25 % 1,018.25 mbar 2.42 m/s 243.39 Deg 2.7 µg/m3
2023-01-14 05:00 22.23 µg/m3 2.37 µg/m3 16.97 µg/m3 7.23 µg/m3 14.82 °C 80.91 % 1,018.35 mbar 1.97 m/s 221.22 Deg 0.56 µg/m3
2023-01-14 04:00 23.03 µg/m3 2.2 µg/m3 16.74 µg/m3 6.96 µg/m3 14.63 °C 78.24 % 1,018.66 mbar 1.92 m/s 219.25 Deg 1.75 µg/m3
2023-01-14 03:00 15.85 µg/m3 2.51 µg/m3 15.31 µg/m3 6.15 µg/m3 14.69 °C 76.96 % 1,019.06 mbar 2.89 m/s 252.73 Deg 0.53 µg/m3
2023-01-14 02:00 7.41 µg/m3 2.7 µg/m3 14.56 µg/m3 5.89 µg/m3 14.8 °C 75.97 % 1,019.21 mbar 3.47 m/s 260.95 Deg -0.12 µg/m3
2023-01-14 01:00 17.67 µg/m3 2.81 µg/m3 16.38 µg/m3 6.34 µg/m3 14.51 °C 76.65 % 1,019.38 mbar 2.16 m/s 233.97 Deg 0.15 µg/m3
2023-01-14 00:00 28.16 µg/m3 2.07 µg/m3 18.02 µg/m3 7.27 µg/m3 14.4 °C 77.46 % 1,019.67 mbar 2.3 m/s 231.27 Deg 2.15 µg/m3
2023-01-13 23:00 39.49 µg/m3 2.02 µg/m3 20.59 µg/m3 9.29 µg/m3 14.37 °C 79.18 % 1,019.87 mbar 2.09 m/s 204.81 Deg 3.2 µg/m3
2023-01-13 22:00 29.56 µg/m3 1.71 µg/m3 17.78 µg/m3 7.53 µg/m3 14.71 °C 76.86 % 1,020.01 mbar 2.49 m/s 229.83 Deg 0.59 µg/m3
2023-01-13 21:00 31.75 µg/m3 1.51 µg/m3 16.17 µg/m3 6.41 µg/m3 14.96 °C 74.83 % 1,020.24 mbar 3.02 m/s 243.71 Deg 2.77 µg/m3
2023-01-13 20:00 45.65 µg/m3 1.49 µg/m3 19.63 µg/m3 7.1 µg/m3 14.74 °C 73.33 % 1,020.41 mbar 2.5 m/s 226.17 Deg 2.69 µg/m3
2023-01-13 19:00 38.35 µg/m3 1.64 µg/m3 18.38 µg/m3 6.13 µg/m3 14.71 °C 70.33 % 1,020.06 mbar 2.13 m/s 247.18 Deg 1.21 µg/m3
2023-01-13 18:00 29.84 µg/m3 1.89 µg/m3 19.5 µg/m3 5.86 µg/m3 15.06 °C 67.77 % 1,019.85 mbar 1.87 m/s 266.42 Deg 2.05 µg/m3
2023-01-13 17:00 15.33 µg/m3 1.48 µg/m3 16.97 µg/m3 5.14 µg/m3 15.86 °C 66.35 % 1,019.70 mbar 1.6 m/s 312.38 Deg 3.53 µg/m3
2023-01-13 16:00 7.67 µg/m3 1.56 µg/m3 16.87 µg/m3 4.53 µg/m3 15.81 °C 71.86 % 1,019.42 mbar 1.42 m/s 333.1 Deg 1.48 µg/m3
2023-01-13 15:00 6.93 µg/m3 2 µg/m3 16.73 µg/m3 4.9 µg/m3 15.77 °C 73.71 % 1,019.12 mbar 1.47 m/s 331.14 Deg 2.8 µg/m3
2023-01-13 14:00 8.7 µg/m3 1.54 µg/m3 18.16 µg/m3 5.18 µg/m3 15.93 °C 73.53 % 1,019.30 mbar 1.44 m/s 342.67 Deg 2.63 µg/m3
2023-01-13 13:00 9.72 µg/m3 1.94 µg/m3 17.55 µg/m3 5.6 µg/m3 16.03 °C 74.87 % 1,019.78 mbar 1.4 m/s 344.83 Deg 3.62 µg/m3
2023-01-13 12:00 15.46 µg/m3 2.47 µg/m3 18 µg/m3 6.03 µg/m3 15.8 °C 77.17 % 1,020.33 mbar 1.23 m/s 310.42 Deg 5.4 µg/m3
2023-01-13 11:00 53.62 µg/m3 2.9 µg/m3 21.1 µg/m3 8.96 µg/m3 15.08 °C 80.58 % 1,020.69 mbar 1.69 m/s 233.98 Deg 29.47 µg/m3
2023-01-13 10:00 76.35 µg/m3 5.75 µg/m3 35.3 µg/m3 16.44 µg/m3 14.37 °C 85.19 % 1,020.38 mbar 2.26 m/s 223.38 Deg 105.64 µg/m3
2023-01-13 09:00 79.16 µg/m3 6.87 µg/m3 45.3 µg/m3 21.66 µg/m3 13.72 °C 87.39 % 1,019.89 mbar 1.91 m/s 208.85 Deg 184.46 µg/m3
2023-01-13 08:00 65.83 µg/m3 6.35 µg/m3 36.25 µg/m3 17.45 µg/m3 13.53 °C 86.35 % 1,019.43 mbar 2.33 m/s 205.68 Deg 110.07 µg/m3
2023-01-13 07:00 21.94 µg/m3 3.15 µg/m3 14.46 µg/m3 6.11 µg/m3 14.79 °C 79.19 % 1,019.00 mbar 0.71 m/s 234.01 Deg 14.59 µg/m3
2023-01-13 06:00 24.89 µg/m3 2.94 µg/m3 14.27 µg/m3 6.03 µg/m3 14.41 °C 83.03 % 1,018.45 mbar 1.12 m/s 226.63 Deg 7.73 µg/m3
2023-01-13 05:00 36.31 µg/m3 3.64 µg/m3 20.61 µg/m3 9.04 µg/m3 14.43 °C 82.95 % 1,018.14 mbar 0.96 m/s 224.91 Deg 6.08 µg/m3
2023-01-13 04:00 13.07 µg/m3 3.35 µg/m3 16.19 µg/m3 6.64 µg/m3 15 °C 77.6 % 1,018.15 mbar 0.66 m/s 312.22 Deg 1 µg/m3
2023-01-13 03:00 6.01 µg/m3 2.68 µg/m3 13.99 µg/m3 5.59 µg/m3 14.93 °C 78.44 % 1,018.26 mbar 0.66 m/s 296.15 Deg -0.06 µg/m3
2023-01-13 02:00 3.39 µg/m3 1.89 µg/m3 13.99 µg/m3 5.63 µg/m3 15.01 °C 80.82 % 1,018.28 mbar 0.86 m/s 330.89 Deg 0.2 µg/m3
2023-01-13 01:00 7.16 µg/m3 2.52 µg/m3 14.53 µg/m3 6.07 µg/m3 14.55 °C 85.41 % 1,018.39 mbar 1 m/s 325.62 Deg 0.72 µg/m3
2023-01-13 00:00 3.67 µg/m3 2.17 µg/m3 16.92 µg/m3 6.32 µg/m3 15.44 °C 78.14 % 1,018.36 mbar 2.34 m/s 336.52 Deg 0.08 µg/m3
2023-01-12 23:00 2.82 µg/m3 2.57 µg/m3 19.07 µg/m3 6.6 µg/m3 15.73 °C 73.1 % 1,018.35 mbar 2.35 m/s 307.41 Deg 0.31 µg/m3
2023-01-12 22:00 5.01 µg/m3 2.45 µg/m3 19.93 µg/m3 7.1 µg/m3 15.81 °C 72.95 % 1,017.98 mbar 2.66 m/s 303.49 Deg 0.7 µg/m3
2023-01-12 21:00 33.82 µg/m3 3.45 µg/m3 20.67 µg/m3 8.52 µg/m3 15.52 °C 75.36 % 1,017.65 mbar 3.69 m/s 266.54 Deg 22.48 µg/m3
2023-01-12 20:00 37.88 µg/m3 3.55 µg/m3 23.48 µg/m3 10.27 µg/m3 15.54 °C 77.13 % 1,017.42 mbar 3.72 m/s 256.38 Deg 18.28 µg/m3
2023-01-12 19:00 48.72 µg/m3 4.3 µg/m3 23.57 µg/m3 10.81 µg/m3 15.64 °C 76.38 % 1,017.16 mbar 4.44 m/s 260.12 Deg 39.97 µg/m3
2023-01-12 18:00 44.38 µg/m3 3.89 µg/m3 23.96 µg/m3 10.09 µg/m3 15.68 °C 69.31 % 1,016.70 mbar 4.29 m/s 261.7 Deg 28.43 µg/m3
2023-01-12 17:00 45.93 µg/m3 4.8 µg/m3 29.22 µg/m3 13.95 µg/m3 16.22 °C 71.02 % 1,016.33 mbar 4.78 m/s 270.3 Deg 32.7 µg/m3
2023-01-12 16:00 30.77 µg/m3 3.88 µg/m3 21.73 µg/m3 8.91 µg/m3 16.63 °C 72.89 % 1,015.91 mbar 4.84 m/s 268.21 Deg 20.61 µg/m3
2023-01-12 15:00 14.26 µg/m3 2.59 µg/m3 22.54 µg/m3 8.57 µg/m3 16.82 °C 72.85 % 1,015.96 mbar 3.95 m/s 281.72 Deg 6.72 µg/m3
2023-01-12 14:00 28.42 µg/m3 3.67 µg/m3 15.7 µg/m3 6.61 µg/m3 16.78 °C 76.04 % 1,015.95 mbar 4.6 m/s 268.68 Deg 21.6 µg/m3
2023-01-12 13:00 34.5 µg/m3 3.18 µg/m3 14.59 µg/m3 6.49 µg/m3 15.14 °C 85.27 % 1,016.86 mbar 4.05 m/s 246.66 Deg 15.76 µg/m3
2023-01-12 12:00 39.96 µg/m3 2.55 µg/m3 16.96 µg/m3 7.49 µg/m3 15.52 °C 83.57 % 1,017.64 mbar 3.79 m/s 243.78 Deg 15.22 µg/m3
2023-01-12 11:00 42.77 µg/m3 3.92 µg/m3 21.82 µg/m3 7.57 µg/m3 16.45 °C 75.11 % 1,018.07 mbar 3.76 m/s 255.38 Deg 19.45 µg/m3
2023-01-12 10:00 48.1 µg/m3 4.24 µg/m3 24.08 µg/m3 8.23 µg/m3 16.31 °C 76.01 % 1,018.03 mbar 3.04 m/s 262.83 Deg 23.96 µg/m3
2023-01-12 09:00 62.84 µg/m3 5.35 µg/m3 26.63 µg/m3 10.89 µg/m3 15.39 °C 78.54 % 1,017.90 mbar 2.68 m/s 239.32 Deg 52.43 µg/m3
2023-01-12 08:00 73.83 µg/m3 5.65 µg/m3 26.77 µg/m3 12.14 µg/m3 14.21 °C 82.14 % 1,017.99 mbar 2.19 m/s 202.6 Deg 66.03 µg/m3
2023-01-12 07:00 67.82 µg/m3 6.49 µg/m3 19.55 µg/m3 8.93 µg/m3 13.99 °C 81.05 % 1,018.02 mbar 2.23 m/s 212.49 Deg 41.67 µg/m3
2023-01-12 06:00 42.24 µg/m3 4.14 µg/m3 15.69 µg/m3 6.8 µg/m3 14.29 °C 77.95 % 1,018.06 mbar 2.54 m/s 231.66 Deg 12.31 µg/m3
2023-01-12 05:00 42.67 µg/m3 4.09 µg/m3 15.43 µg/m3 6.02 µg/m3 14.31 °C 75.47 % 1,018.14 mbar 2.4 m/s 250.5 Deg 16.41 µg/m3
2023-01-12 04:00 42.38 µg/m3 3.13 µg/m3 14.14 µg/m3 5.67 µg/m3 14.28 °C 72.47 % 1,018.53 mbar 3.01 m/s 252.01 Deg 16.63 µg/m3
2023-01-12 03:00 44.2 µg/m3 3.13 µg/m3 12.98 µg/m3 5 µg/m3 13.93 °C 67.68 % 1,018.91 mbar 3.45 m/s 249.24 Deg 18.58 µg/m3
2023-01-12 02:00 47.35 µg/m3 3.97 µg/m3 14.1 µg/m3 5.27 µg/m3 13.78 °C 64.67 % 1,019.10 mbar 2.98 m/s 249.4 Deg 31.08 µg/m3
2023-01-12 01:00 17.49 µg/m3 2.64 µg/m3 14.91 µg/m3 5.6 µg/m3 13.64 °C 69.25 % 1,019.27 mbar 2.81 m/s 218.97 Deg 2.43 µg/m3
2023-01-12 00:00 17.69 µg/m3 2.57 µg/m3 15.66 µg/m3 6.1 µg/m3 13.75 °C 71.52 % 1,019.49 mbar 3.19 m/s 214.3 Deg 0.69 µg/m3
2023-01-11 23:00 28.53 µg/m3 3.23 µg/m3 17.42 µg/m3 6.44 µg/m3 14.44 °C 68.3 % 1,019.56 mbar 2.8 m/s 236.58 Deg 7.1 µg/m3
2023-01-11 22:00 49.22 µg/m3 4.85 µg/m3 19.57 µg/m3 7.61 µg/m3 14.59 °C 67.71 % 1,019.41 mbar 2.97 m/s 245.23 Deg 22.99 µg/m3
2023-01-11 21:00 38.36 µg/m3 3.42 µg/m3 20.72 µg/m3 7.78 µg/m3 14.58 °C 66.74 % 1,019.42 mbar 2.75 m/s 234.31 Deg 11.6 µg/m3
2023-01-11 20:00 50.41 µg/m3 3.98 µg/m3 21.12 µg/m3 7.61 µg/m3 14.73 °C 65.44 % 1,019.43 mbar 2.91 m/s 250.02 Deg 26.04 µg/m3
2023-01-11 19:00 38.12 µg/m3 3.54 µg/m3 20.29 µg/m3 7.32 µg/m3 14.75 °C 63.56 % 1,019.10 mbar 3.26 m/s 260.2 Deg 18.89 µg/m3
2023-01-11 18:00 38.44 µg/m3 3.48 µg/m3 20.89 µg/m3 6.96 µg/m3 14.95 °C 62 % 1,018.76 mbar 3.24 m/s 268.37 Deg 19.39 µg/m3
2023-01-11 17:00 26.98 µg/m3 3 µg/m3 18.67 µg/m3 6.36 µg/m3 15.61 °C 56.87 % 1,018.59 mbar 3.89 m/s 273.35 Deg 11.88 µg/m3
2023-01-11 16:00 19.6 µg/m3 3.34 µg/m3 16.88 µg/m3 5.58 µg/m3 15.85 °C 53.29 % 1,018.43 mbar 4.26 m/s 272.32 Deg 8.55 µg/m3
2023-01-11 15:00 15 µg/m3 3.15 µg/m3 18.43 µg/m3 6.16 µg/m3 15.86 °C 53.63 % 1,018.25 mbar 4.24 m/s 279.09 Deg 8.78 µg/m3
2023-01-11 14:00 11.26 µg/m3 2.98 µg/m3 16.67 µg/m3 5.37 µg/m3 15.96 °C 52.29 % 1,018.38 mbar 4.6 m/s 280.92 Deg 3.83 µg/m3
2023-01-11 13:00 7.6 µg/m3 3.03 µg/m3 15.9 µg/m3 4.85 µg/m3 16.06 °C 47.88 % 1,018.84 mbar 3.88 m/s 286.45 Deg 2.69 µg/m3
2023-01-11 12:00 6.46 µg/m3 3.13 µg/m3 17.86 µg/m3 4.92 µg/m3 15.95 °C 46.92 % 1,019.29 mbar 3.35 m/s 300.39 Deg 2.59 µg/m3
2023-01-11 11:00 8.56 µg/m3 2.82 µg/m3 17.75 µg/m3 5.05 µg/m3 15.68 °C 48.93 % 1,019.56 mbar 2.97 m/s 300.72 Deg 3.41 µg/m3
2023-01-11 10:00 9.87 µg/m3 2.8 µg/m3 21.29 µg/m3 5.66 µg/m3 15.32 °C 51.27 % 1,019.15 mbar 2.82 m/s 312.75 Deg 3.92 µg/m3
2023-01-11 09:00 7.38 µg/m3 2.8 µg/m3 22.01 µg/m3 5.85 µg/m3 15.03 °C 51.86 % 1,018.63 mbar 2.28 m/s 319.29 Deg 2.44 µg/m3
2023-01-11 08:00 13.48 µg/m3 2.49 µg/m3 20.57 µg/m3 5.73 µg/m3 14.8 °C 53.39 % 1,018.48 mbar 2.46 m/s 311.9 Deg 3.66 µg/m3
2023-01-11 07:00 7.02 µg/m3 2.69 µg/m3 19 µg/m3 5.67 µg/m3 14.71 °C 54.6 % 1,018.10 mbar 2.74 m/s 301.18 Deg 1.55 µg/m3
2023-01-11 06:00 6.7 µg/m3 2.44 µg/m3 17.56 µg/m3 5.53 µg/m3 14.73 °C 53.89 % 1,017.59 mbar 2.93 m/s 293.41 Deg 1.35 µg/m3
2023-01-11 05:00 21.48 µg/m3 3.22 µg/m3 16.52 µg/m3 6 µg/m3 14.69 °C 55.74 % 1,017.17 mbar 4.57 m/s 273.6 Deg 10.78 µg/m3
2023-01-11 04:00 28.16 µg/m3 3.73 µg/m3 16.52 µg/m3 6.25 µg/m3 14.76 °C 55.32 % 1,017.35 mbar 4.98 m/s 274.78 Deg 15.25 µg/m3
2023-01-11 03:00 23.36 µg/m3 3.14 µg/m3 17.74 µg/m3 6.6 µg/m3 14.84 °C 55.02 % 1,017.53 mbar 5.11 m/s 277.64 Deg 11.48 µg/m3
2023-01-11 02:00 20.4 µg/m3 3.01 µg/m3 19.61 µg/m3 7.25 µg/m3 14.82 °C 56.71 % 1,017.60 mbar 4.47 m/s 280.33 Deg 7.9 µg/m3
2023-01-11 01:00 9.24 µg/m3 3.28 µg/m3 18.3 µg/m3 6.75 µg/m3 14.9 °C 55.4 % 1,017.63 mbar 4.68 m/s 281.77 Deg 3.19 µg/m3
2023-01-11 00:00 7.33 µg/m3 2.85 µg/m3 18.84 µg/m3 6.75 µg/m3 14.82 °C 54.72 % 1,017.82 mbar 3.8 m/s 285.56 Deg 2.27 µg/m3
2023-01-10 23:00 9.43 µg/m3 3.25 µg/m3 16.11 µg/m3 5.81 µg/m3 14.9 °C 51.37 % 1,017.76 mbar 4.73 m/s 283.68 Deg 3.35 µg/m3
2023-01-10 22:00 6.69 µg/m3 3.07 µg/m3 19.08 µg/m3 6.69 µg/m3 14.96 °C 54.58 % 1,017.70 mbar 3.65 m/s 300.36 Deg 1.74 µg/m3
2023-01-10 21:00 24.67 µg/m3 3.65 µg/m3 18.37 µg/m3 6.64 µg/m3 14.72 °C 54.68 % 1,017.27 mbar 4.61 m/s 281.7 Deg 11.34 µg/m3
2023-01-10 20:00 30.48 µg/m3 4.66 µg/m3 18.48 µg/m3 7.54 µg/m3 14.8 °C 51.05 % 1,016.69 mbar 5.76 m/s 276.4 Deg 15.3 µg/m3
2023-01-10 19:00 31.44 µg/m3 4.09 µg/m3 15.85 µg/m3 5.99 µg/m3 14 °C 54.98 % 1,016.12 mbar 5.57 m/s 268.15 Deg 12.69 µg/m3
2023-01-10 18:00 24.23 µg/m3 3.42 µg/m3 20.85 µg/m3 7.12 µg/m3 14.33 °C 54.81 % 1,015.72 mbar 5.57 m/s 273.94 Deg 9.71 µg/m3
2023-01-10 17:00 36.13 µg/m3 4.87 µg/m3 23.36 µg/m3 9.72 µg/m3 14.11 °C 65.93 % 1,015.34 mbar 5.29 m/s 266.72 Deg 27.52 µg/m3
2023-01-10 16:00 10.5 µg/m3 3.16 µg/m3 22.78 µg/m3 8.14 µg/m3 14.1 °C 64.96 % 1,015.14 mbar 4.26 m/s 290.89 Deg 4.03 µg/m3
2023-01-10 15:00 18.03 µg/m3 3.47 µg/m3 20.95 µg/m3 8.06 µg/m3 15.45 °C 54.86 % 1,014.62 mbar 7.95 m/s 271.41 Deg 8.38 µg/m3
2023-01-10 14:00 18.18 µg/m3 3.65 µg/m3 21.56 µg/m3 7.18 µg/m3 16.12 °C 48.32 % 1,014.17 mbar 10.38 m/s 264.13 Deg 11.44 µg/m3
2023-01-10 13:00 16.48 µg/m3 3.42 µg/m3 18.02 µg/m3 6.15 µg/m3 15.97 °C 50.64 % 1,014.36 mbar 11.2 m/s 263.1 Deg 10.44 µg/m3
2023-01-10 12:00 21.13 µg/m3 3.47 µg/m3 15.76 µg/m3 6.16 µg/m3 15.4 °C 55.46 % 1,015.48 mbar 9.05 m/s 265.02 Deg 13.71 µg/m3
2023-01-10 11:00 20.51 µg/m3 3.13 µg/m3 18.11 µg/m3 7.01 µg/m3 14.9 °C 58.12 % 1,016.03 mbar 7.31 m/s 266.73 Deg 11.66 µg/m3
2023-01-10 10:00 22.42 µg/m3 2.68 µg/m3 21.58 µg/m3 7.56 µg/m3 15.86 °C 52.89 % 1,015.72 mbar 8.4 m/s 265.84 Deg 13.75 µg/m3
2023-01-10 09:00 20.11 µg/m3 3.23 µg/m3 16.96 µg/m3 6.14 µg/m3 15.71 °C 55.76 % 1,015.15 mbar 9.1 m/s 251.21 Deg 8.45 µg/m3
2023-01-10 08:00 24.54 µg/m3 3.01 µg/m3 13.41 µg/m3 4.89 µg/m3 15.29 °C 58.75 % 1,015.36 mbar 9.1 m/s 253.3 Deg 11.43 µg/m3
2023-01-10 07:00 17.42 µg/m3 2.76 µg/m3 11.68 µg/m3 4.24 µg/m3 15.58 °C 60.43 % 1,015.29 mbar 8.15 m/s 255.9 Deg 6.17 µg/m3
2023-01-10 06:00 18.28 µg/m3 3.11 µg/m3 11.35 µg/m3 4.25 µg/m3 15.59 °C 60.26 % 1,015.25 mbar 7.21 m/s 260.48 Deg 9.26 µg/m3
2023-01-10 05:00 34 µg/m3 3.63 µg/m3 14.47 µg/m3 5.88 µg/m3 15.53 °C 62.12 % 1,015.23 mbar 5.48 m/s 263.68 Deg 17.41 µg/m3
2023-01-10 04:00 31.16 µg/m3 3.69 µg/m3 16.28 µg/m3 6.4 µg/m3 15.45 °C 62.51 % 1,015.51 mbar 4.96 m/s 264.73 Deg 14.8 µg/m3
2023-01-10 03:00 34.17 µg/m3 3.03 µg/m3 13.97 µg/m3 5.66 µg/m3 15.82 °C 64.66 % 1,015.58 mbar 5.96 m/s 259.92 Deg 16.75 µg/m3
2023-01-10 02:00 6.87 µg/m3 2.37 µg/m3 12.05 µg/m3 4.96 µg/m3 15.86 °C 76.35 % 1,015.29 mbar 6.39 m/s 247.38 Deg 1.91 µg/m3
2023-01-10 01:00 3.9 µg/m3 1.83 µg/m3 9.98 µg/m3 4.01 µg/m3 15.26 °C 83.39 % 1,015.54 mbar 6.55 m/s 228.74 Deg 0.16 µg/m3
2023-01-10 00:00 6.45 µg/m3 1.86 µg/m3 10.14 µg/m3 4.11 µg/m3 14.83 °C 85.23 % 1,015.64 mbar 6.72 m/s 226.5 Deg 3 µg/m3
2023-01-09 23:00 24.74 µg/m3 2.68 µg/m3 14.71 µg/m3 6.33 µg/m3 15.74 °C 86.73 % 1,015.86 mbar 4.98 m/s 256.13 Deg 12.73 µg/m3
2023-01-09 22:00 8.3 µg/m3 2.35 µg/m3 30.61 µg/m3 14.04 µg/m3 17.58 °C 78.42 % 1,015.33 mbar 6.4 m/s 222.89 Deg 0.08 µg/m3
2023-01-09 21:00 13.35 µg/m3 2.1 µg/m3 27.6 µg/m3 12.65 µg/m3 17.43 °C 78.22 % 1,014.98 mbar 6.47 m/s 204.55 Deg 0.42 µg/m3
2023-01-09 20:00 18.39 µg/m3 1.81 µg/m3 24.84 µg/m3 11.79 µg/m3 17.09 °C 78.79 % 1,014.85 mbar 5.85 m/s 199.12 Deg 0.77 µg/m3
2023-01-09 19:00 58.11 µg/m3 5.98 µg/m3 24.28 µg/m3 12.51 µg/m3 16.9 °C 79.38 % 1,014.68 mbar 6.13 m/s 201.32 Deg 52.6 µg/m3
2023-01-09 18:00 43.77 µg/m3 2.86 µg/m3 21.62 µg/m3 11.11 µg/m3 16.99 °C 76.69 % 1,014.83 mbar 6.57 m/s 214.97 Deg 11.52 µg/m3
2023-01-09 17:00 26.26 µg/m3 2.62 µg/m3 17.87 µg/m3 9.07 µg/m3 17.34 °C 73.27 % 1,014.52 mbar 8.43 m/s 218.52 Deg 8.73 µg/m3
2023-01-09 16:00 18.4 µg/m3 2.59 µg/m3 15.81 µg/m3 7.6 µg/m3 17.45 °C 69.42 % 1,014.45 mbar 10.2 m/s 221.02 Deg 6.69 µg/m3
2023-01-09 15:00 10.32 µg/m3 1.99 µg/m3 16.86 µg/m3 7.16 µg/m3 17.38 °C 68.57 % 1,014.50 mbar 11.48 m/s 216.28 Deg 2.33 µg/m3
2023-01-09 14:00 9.12 µg/m3 2.15 µg/m3 20.52 µg/m3 7.61 µg/m3 17.62 °C 67.84 % 1,015.03 mbar 11.57 m/s 215.17 Deg 1.99 µg/m3
2023-01-09 13:00 11.59 µg/m3 2.42 µg/m3 21.24 µg/m3 8.25 µg/m3 17.64 °C 66.5 % 1,016.00 mbar 9.66 m/s 208.68 Deg 2.58 µg/m3
2023-01-09 12:00 15.15 µg/m3 2.48 µg/m3 22.01 µg/m3 8.88 µg/m3 17.48 °C 67.12 % 1,017.11 mbar 8.95 m/s 204.24 Deg 3.67 µg/m3
2023-01-09 11:00 19.93 µg/m3 3.26 µg/m3 21.16 µg/m3 8.36 µg/m3 17.34 °C 66.75 % 1,017.86 mbar 9.84 m/s 209.66 Deg 8.9 µg/m3
2023-01-09 10:00 38.2 µg/m3 4.84 µg/m3 24.96 µg/m3 9.61 µg/m3 16.93 °C 67.97 % 1,018.16 mbar 7.34 m/s 209.73 Deg 42.55 µg/m3
2023-01-09 09:00 45.77 µg/m3 3.21 µg/m3 30.04 µg/m3 11.23 µg/m3 16.03 °C 70.9 % 1,018.04 mbar 4.63 m/s 196.06 Deg 13.1 µg/m3
2023-01-09 08:00 74.24 µg/m3 3.84 µg/m3 36.64 µg/m3 13.48 µg/m3 15.13 °C 74.76 % 1,018.63 mbar 2.47 m/s 193.09 Deg 38.38 µg/m3
2023-01-09 07:00 61.88 µg/m3 3.6 µg/m3 33.18 µg/m3 12.59 µg/m3 14.79 °C 76.79 % 1,018.67 mbar 2.01 m/s 183.57 Deg 19.65 µg/m3
2023-01-09 06:00 58.93 µg/m3 2.9 µg/m3 27.99 µg/m3 12.68 µg/m3 14.45 °C 81.36 % 1,018.67 mbar 1.81 m/s 189.64 Deg 6.37 µg/m3
2023-01-09 05:00 48.15 µg/m3 2.5 µg/m3 19.99 µg/m3 8.89 µg/m3 14.14 °C 80.75 % 1,018.84 mbar 1.55 m/s 178.73 Deg 3.95 µg/m3
2023-01-09 04:00 45.28 µg/m3 3.09 µg/m3 15.47 µg/m3 7.04 µg/m3 14.08 °C 80.08 % 1,019.08 mbar 1.81 m/s 181.9 Deg 6.78 µg/m3
2023-01-09 03:00 47.15 µg/m3 2.36 µg/m3 17.08 µg/m3 8.31 µg/m3 12.79 °C 88.19 % 1,019.85 mbar 1.54 m/s 205.16 Deg 6.53 µg/m3
2023-01-09 02:00 54.52 µg/m3 3.11 µg/m3 21.23 µg/m3 10.62 µg/m3 12.97 °C 87.55 % 1,020.55 mbar 1.27 m/s 201.32 Deg 30.95 µg/m3
2023-01-09 01:00 36.5 µg/m3 2.71 µg/m3 19.59 µg/m3 9.68 µg/m3 13.05 °C 85.74 % 1,021.04 mbar 1.15 m/s 187.05 Deg 2.19 µg/m3
2023-01-09 00:00 32.1 µg/m3 2.28 µg/m3 16.6 µg/m3 8.25 µg/m3 13.04 °C 85.77 % 1,021.32 mbar 1.62 m/s 205.05 Deg 1.81 µg/m3
2023-01-08 23:00 35.38 µg/m3 2.34 µg/m3 18.72 µg/m3 9.6 µg/m3 13.15 °C 84.76 % 1,021.38 mbar 2 m/s 202.78 Deg 3.8 µg/m3
2023-01-08 22:00 44.35 µg/m3 2.8 µg/m3 19.56 µg/m3 10 µg/m3 13.47 °C 83.55 % 1,021.46 mbar 2.01 m/s 206.39 Deg 4.96 µg/m3
2023-01-08 21:00 59.48 µg/m3 3.02 µg/m3 24.35 µg/m3 12.23 µg/m3 13.84 °C 83.53 % 1,021.49 mbar 1.74 m/s 207.09 Deg 14.49 µg/m3
2023-01-08 20:00 55.34 µg/m3 3.18 µg/m3 20.56 µg/m3 9.86 µg/m3 14.64 °C 82.45 % 1,021.31 mbar 2.24 m/s 206.9 Deg 3.79 µg/m3
2023-01-08 19:00 36.85 µg/m3 1.39 µg/m3 17.26 µg/m3 7.4 µg/m3 15.58 °C 77.67 % 1,020.93 mbar 1.89 m/s 216.78 Deg 1.45 µg/m3
2023-01-08 18:00 17.08 µg/m3 0.7 µg/m3 12.37 µg/m3 4.52 µg/m3 16.07 °C 75.26 % 1,020.58 mbar 2.38 m/s 263.9 Deg 0.82 µg/m3
2023-01-08 17:00 10.48 µg/m3 1.03 µg/m3 11.09 µg/m3 4.07 µg/m3 16.74 °C 72.03 % 1,020.49 mbar 3.67 m/s 256.24 Deg 3.48 µg/m3
2023-01-08 16:00 7.31 µg/m3 1.22 µg/m3 11.69 µg/m3 4.2 µg/m3 17.25 °C 70.97 % 1,020.42 mbar 3.42 m/s 263.24 Deg 1.35 µg/m3
2023-01-08 15:00 6.93 µg/m3 1.43 µg/m3 14.41 µg/m3 4.81 µg/m3 17.05 °C 73.7 % 1,020.43 mbar 1.38 m/s 323.7 Deg 1.19 µg/m3
2023-01-08 14:00 7.31 µg/m3 1.37 µg/m3 14.81 µg/m3 5.74 µg/m3 17.11 °C 72.85 % 1,020.57 mbar 1.54 m/s 321.91 Deg 1.02 µg/m3
2023-01-08 13:00 6.42 µg/m3 1.61 µg/m3 14.74 µg/m3 6.11 µg/m3 17.37 °C 68.21 % 1,021.13 mbar 1.31 m/s 343.03 Deg 1.57 µg/m3
2023-01-08 12:00 11.99 µg/m3 1.46 µg/m3 14.23 µg/m3 5.53 µg/m3 16.9 °C 71.56 % 1,021.89 mbar 1.43 m/s 327.13 Deg 3.3 µg/m3
2023-01-08 11:00 13.89 µg/m3 1.41 µg/m3 19.23 µg/m3 8.77 µg/m3 16.39 °C 76.69 % 1,022.15 mbar 1.12 m/s 316.01 Deg 3.38 µg/m3
2023-01-08 10:00 45.18 µg/m3 2.15 µg/m3 27.68 µg/m3 13.46 µg/m3 14.07 °C 86.56 % 1,021.99 mbar 1.33 m/s 195.83 Deg 35.59 µg/m3
2023-01-08 09:00 44.46 µg/m3 2.33 µg/m3 26.26 µg/m3 13.5 µg/m3 12.08 °C 92.54 % 1,021.56 mbar 2.05 m/s 196.03 Deg 47.48 µg/m3
2023-01-08 08:00 41.71 µg/m3 1.82 µg/m3 21.3 µg/m3 10.78 µg/m3 11.44 °C 92.76 % 1,021.35 mbar 2.14 m/s 203.76 Deg 30.33 µg/m3
2023-01-08 07:00 35.82 µg/m3 1.35 µg/m3 20.29 µg/m3 10.68 µg/m3 11.26 °C 92.59 % 1,021.05 mbar 2.17 m/s 205.7 Deg 7.19 µg/m3
2023-01-08 06:00 30.02 µg/m3 1.35 µg/m3 19.9 µg/m3 10.85 µg/m3 11.58 °C 92.17 % 1,020.74 mbar 1.88 m/s 210.59 Deg 2.95 µg/m3
2023-01-08 05:00 23.46 µg/m3 1.29 µg/m3 23.36 µg/m3 13.22 µg/m3 11.45 °C 92.47 % 1,020.68 mbar 1.81 m/s 209.83 Deg 1.13 µg/m3
2023-01-08 04:00 25.63 µg/m3 0.72 µg/m3 25.43 µg/m3 14.87 µg/m3 11.62 °C 93.11 % 1,020.85 mbar 2.17 m/s 211.25 Deg 3.35 µg/m3
2023-01-08 03:00 39.73 µg/m3 1.26 µg/m3 28.34 µg/m3 16.72 µg/m3 12.07 °C 91.56 % 1,020.97 mbar 2.1 m/s 206.92 Deg 13.5 µg/m3
2023-01-08 02:00 48.55 µg/m3 1.73 µg/m3 32.12 µg/m3 18.22 µg/m3 12.41 °C 90.25 % 1,021.05 mbar 1.7 m/s 204.05 Deg 35.48 µg/m3
2023-01-08 01:00 43.97 µg/m3 2.56 µg/m3 36.71 µg/m3 21.48 µg/m3 12.05 °C 90.69 % 1,021.36 mbar 2.72 m/s 213.63 Deg 42.89 µg/m3
2023-01-08 00:00 46.83 µg/m3 3.09 µg/m3 40.99 µg/m3 23.98 µg/m3 12.31 °C 89.63 % 1,021.70 mbar 2.41 m/s 209.93 Deg 33.08 µg/m3
2023-01-07 23:00 48.8 µg/m3 3.1 µg/m3 40.88 µg/m3 24 µg/m3 12.43 °C 88.96 % 1,021.88 mbar 2.26 m/s 206.27 Deg 29.06 µg/m3
2023-01-07 22:00 53.75 µg/m3 3.33 µg/m3 42.58 µg/m3 24.21 µg/m3 12.86 °C 87.4 % 1,021.82 mbar 2.24 m/s 209.79 Deg 28.49 µg/m3
2023-01-07 21:00 63.31 µg/m3 4.64 µg/m3 45.21 µg/m3 24.61 µg/m3 13.56 °C 85.23 % 1,021.76 mbar 2.05 m/s 202.98 Deg 51.96 µg/m3
2023-01-07 20:00 51.51 µg/m3 3.39 µg/m3 42.17 µg/m3 21.41 µg/m3 14.94 °C 80.6 % 1,021.50 mbar 1.44 m/s 237.33 Deg 38.28 µg/m3
2023-01-07 19:00 19.33 µg/m3 1.43 µg/m3 26.44 µg/m3 12.11 µg/m3 15.81 °C 76.24 % 1,021.16 mbar 0.46 m/s 254.24 Deg 2.71 µg/m3
2023-01-07 18:00 10.26 µg/m3 1.85 µg/m3 25.27 µg/m3 10.9 µg/m3 16.02 °C 74.55 % 1,020.75 mbar 0.46 m/s 300.09 Deg 1.03 µg/m3
2023-01-07 17:00 10.75 µg/m3 2.17 µg/m3 22.97 µg/m3 10.1 µg/m3 16.91 °C 71.42 % 1,020.54 mbar 0.39 m/s 256.28 Deg 0.79 µg/m3
2023-01-07 16:00 16.66 µg/m3 2.23 µg/m3 21.49 µg/m3 9.48 µg/m3 17.22 °C 70.01 % 1,020.38 mbar 0.63 m/s 231.21 Deg 3.06 µg/m3
2023-01-07 15:00 7.3 µg/m3 2.21 µg/m3 21.48 µg/m3 9.47 µg/m3 17.04 °C 73.2 % 1,020.34 mbar 0.62 m/s 116.05 Deg 1.47 µg/m3
2023-01-07 14:00 10.84 µg/m3 1.39 µg/m3 26.2 µg/m3 10.63 µg/m3 16.83 °C 77.17 % 1,020.52 mbar 0.49 m/s 177.51 Deg 1.94 µg/m3
2023-01-07 13:00 9.9 µg/m3 0.91 µg/m3 25.31 µg/m3 10.59 µg/m3 16.66 °C 77.63 % 1,021.07 mbar 0.56 m/s 247.67 Deg 2.92 µg/m3
2023-01-07 12:00 12.24 µg/m3 1.56 µg/m3 25.2 µg/m3 10.86 µg/m3 16.58 °C 76.65 % 1,021.71 mbar 0.77 m/s 259.61 Deg 2.95 µg/m3
2023-01-07 11:00 12.91 µg/m3 1.72 µg/m3 24.06 µg/m3 10.9 µg/m3 15.95 °C 78.62 % 1,022.22 mbar 0.78 m/s 204.93 Deg 2.31 µg/m3
2023-01-07 10:00 25.56 µg/m3 1.34 µg/m3 27.25 µg/m3 10.88 µg/m3 15.71 °C 77.28 % 1,021.98 mbar 0.85 m/s 85.08 Deg 37 µg/m3
2023-01-07 09:00 47.88 µg/m3 2.13 µg/m3 36.68 µg/m3 16.43 µg/m3 14.83 °C 82.18 % 1,021.62 mbar 0.82 m/s 213.8 Deg 45.61 µg/m3
2023-01-07 08:00 52.97 µg/m3 5.52 µg/m3 42.53 µg/m3 21.55 µg/m3 13.33 °C 90.37 % 1,021.40 mbar 0.96 m/s 245.08 Deg 75.04 µg/m3
2023-01-07 07:00 41.14 µg/m3 8.26 µg/m3 46.76 µg/m3 25.5 µg/m3 11.85 °C 92.95 % 1,021.31 mbar 1.61 m/s 195.68 Deg 81.69 µg/m3
2023-01-07 06:00 38.22 µg/m3 8.76 µg/m3 45.54 µg/m3 25.97 µg/m3 11.83 °C 92.07 % 1,021.15 mbar 1.71 m/s 201.07 Deg 88.32 µg/m3
2023-01-07 05:00 38.86 µg/m3 6.33 µg/m3 39.15 µg/m3 23.05 µg/m3 12.01 °C 91.8 % 1,021.03 mbar 1.96 m/s 201.53 Deg 43.51 µg/m3
2023-01-07 04:00 41.15 µg/m3 6.11 µg/m3 41.15 µg/m3 22.88 µg/m3 13.03 °C 89.63 % 1,021.34 mbar 1.26 m/s 199.63 Deg 30.97 µg/m3
2023-01-07 03:00 48.12 µg/m3 7.28 µg/m3 44.47 µg/m3 24.49 µg/m3 13.13 °C 89.59 % 1,021.55 mbar 0.93 m/s 195.95 Deg 64.35 µg/m3
2023-01-07 02:00 44.82 µg/m3 6.46 µg/m3 44.51 µg/m3 24.7 µg/m3 12.7 °C 90.3 % 1,021.57 mbar 1.69 m/s 193.03 Deg 41.87 µg/m3
2023-01-07 01:00 45.98 µg/m3 6.37 µg/m3 46.54 µg/m3 26.85 µg/m3 12.46 °C 89.03 % 1,021.78 mbar 1.88 m/s 204.2 Deg 48.37 µg/m3
2023-01-07 00:00 51.74 µg/m3 6.22 µg/m3 50.84 µg/m3 29.56 µg/m3 12.61 °C 88.06 % 1,022.19 mbar 1.77 m/s 207.72 Deg 48 µg/m3
2023-01-06 23:00 52.69 µg/m3 5.91 µg/m3 51.55 µg/m3 30.35 µg/m3 12.83 °C 88.16 % 1,022.41 mbar 2.21 m/s 212.72 Deg 44.3 µg/m3
2023-01-06 22:00 55.69 µg/m3 6.8 µg/m3 61.82 µg/m3 34.76 µg/m3 13.09 °C 87.4 % 1,022.26 mbar 2.18 m/s 205.03 Deg 88.22 µg/m3
2023-01-06 21:00 58.48 µg/m3 7.18 µg/m3 69.97 µg/m3 36.36 µg/m3 13.57 °C 86.52 % 1,022.28 mbar 2.03 m/s 207.45 Deg 88.46 µg/m3
2023-01-06 20:00 65.21 µg/m3 8.21 µg/m3 64.63 µg/m3 31.74 µg/m3 14.42 °C 84.09 % 1,022.04 mbar 2 m/s 207.64 Deg 87.21 µg/m3
2023-01-06 19:00 59.13 µg/m3 3.58 µg/m3 38.63 µg/m3 18.3 µg/m3 15.89 °C 77.19 % 1,021.70 mbar 0.64 m/s 263.12 Deg 21.11 µg/m3
2023-01-06 18:00 18.61 µg/m3 2.69 µg/m3 28.01 µg/m3 12.82 µg/m3 16.05 °C 76 % 1,021.32 mbar 0.57 m/s 170.9 Deg 2.49 µg/m3
2023-01-06 17:00 11.97 µg/m3 2.52 µg/m3 24.97 µg/m3 11.36 µg/m3 16.87 °C 72.97 % 1,021.20 mbar 0.85 m/s 167.43 Deg 1.8 µg/m3
2023-01-06 16:00 15.03 µg/m3 2.63 µg/m3 24 µg/m3 10.54 µg/m3 17.76 °C 65.73 % 1,021.16 mbar 0.78 m/s 196.43 Deg 4.58 µg/m3
2023-01-06 15:00 13.65 µg/m3 2.63 µg/m3 36.42 µg/m3 11.62 µg/m3 17.7 °C 65.74 % 1,021.05 mbar 0.87 m/s 172.14 Deg 2.65 µg/m3
2023-01-06 14:00 14.01 µg/m3 2.31 µg/m3 36.17 µg/m3 11.69 µg/m3 17.46 °C 67.46 % 1,021.15 mbar 0.77 m/s 185.99 Deg 3.33 µg/m3
2023-01-06 13:00 13.71 µg/m3 2.01 µg/m3 37.71 µg/m3 12.07 µg/m3 17.14 °C 70.29 % 1,021.59 mbar 0.77 m/s 217.26 Deg 3.83 µg/m3
2023-01-06 12:00 26 µg/m3 2.34 µg/m3 37.08 µg/m3 12.43 µg/m3 16.93 °C 72.84 % 1,022.23 mbar 0.57 m/s 96.48 Deg 8.8 µg/m3
2023-01-06 11:00 54.56 µg/m3 3.5 µg/m3 37.06 µg/m3 17.36 µg/m3 15.96 °C 79.28 % 1,022.80 mbar 0.47 m/s 109.34 Deg 33.76 µg/m3
2023-01-06 10:00 79.64 µg/m3 7.7 µg/m3 73 µg/m3 35.75 µg/m3 13.81 °C 87.19 % 1,022.75 mbar 0.64 m/s 183.54 Deg 193.62 µg/m3
2023-01-06 09:00 74.43 µg/m3 10.07 µg/m3 75 µg/m3 36.78 µg/m3 11.81 °C 91.6 % 1,022.34 mbar 1.99 m/s 199.18 Deg 239.05 µg/m3
2023-01-06 08:00 54.6 µg/m3 7 µg/m3 57.71 µg/m3 28 µg/m3 11.2 °C 91.59 % 1,022.03 mbar 2.2 m/s 204.85 Deg 167.87 µg/m3
2023-01-06 07:00 47.99 µg/m3 5.55 µg/m3 53.07 µg/m3 25.61 µg/m3 11.17 °C 90.51 % 1,021.77 mbar 2.28 m/s 207.18 Deg 100.22 µg/m3
2023-01-06 06:00 44.53 µg/m3 4.31 µg/m3 36.64 µg/m3 19.18 µg/m3 11.24 °C 89.67 % 1,021.54 mbar 2.21 m/s 207.83 Deg 37.44 µg/m3
2023-01-06 05:00 43.96 µg/m3 4.62 µg/m3 37.56 µg/m3 19.91 µg/m3 11.32 °C 89.79 % 1,021.36 mbar 2.35 m/s 208.88 Deg 31.63 µg/m3
2023-01-06 04:00 40.46 µg/m3 3.52 µg/m3 31.3 µg/m3 18.42 µg/m3 11.45 °C 89.93 % 1,021.67 mbar 2.54 m/s 209.19 Deg 12.18 µg/m3
2023-01-06 03:00 47.08 µg/m3 3.95 µg/m3 31.31 µg/m3 18.75 µg/m3 11.76 °C 89.59 % 1,021.92 mbar 2.43 m/s 211.94 Deg 38.36 µg/m3
2023-01-06 02:00 51.75 µg/m3 3.19 µg/m3 31.48 µg/m3 18.16 µg/m3 12.08 °C 87.49 % 1,022.05 mbar 2.04 m/s 201.83 Deg 13.31 µg/m3
2023-01-06 01:00 53.81 µg/m3 3.07 µg/m3 34.28 µg/m3 19.4 µg/m3 12.27 °C 85.86 % 1,022.29 mbar 1.96 m/s 198.38 Deg 9.16 µg/m3
2023-01-06 00:00 55.73 µg/m3 4.13 µg/m3 35.79 µg/m3 19.64 µg/m3 12.37 °C 84.95 % 1,022.62 mbar 2.32 m/s 209.11 Deg 17.04 µg/m3
2023-01-05 23:00 57.23 µg/m3 5.13 µg/m3 39.7 µg/m3 21.74 µg/m3 12.61 °C 85.06 % 1,022.82 mbar 2.46 m/s 209.78 Deg 26.44 µg/m3
2023-01-05 22:00 59.35 µg/m3 5.1 µg/m3 44.02 µg/m3 23.91 µg/m3 13.02 °C 84.66 % 1,022.74 mbar 2.11 m/s 213.6 Deg 23.02 µg/m3
2023-01-05 21:00 65.52 µg/m3 4.15 µg/m3 53.37 µg/m3 27.16 µg/m3 13.53 °C 82.32 % 1,022.56 mbar 1.69 m/s 207.32 Deg 33.59 µg/m3
2023-01-05 20:00 71.26 µg/m3 4.54 µg/m3 53.12 µg/m3 26.3 µg/m3 14.24 °C 78.99 % 1,022.48 mbar 1.77 m/s 211.37 Deg 20.89 µg/m3
2023-01-05 19:00 66.53 µg/m3 2.36 µg/m3 47.96 µg/m3 21 µg/m3 15.21 °C 73.93 % 1,022.30 mbar 2.23 m/s 219.75 Deg 9.63 µg/m3
2023-01-05 18:00 35.7 µg/m3 2.11 µg/m3 24.85 µg/m3 10.94 µg/m3 15.89 °C 69.74 % 1,022.04 mbar 1.92 m/s 236.64 Deg 0.64 µg/m3
2023-01-05 17:00 15.51 µg/m3 2.14 µg/m3 22.1 µg/m3 9.08 µg/m3 16.74 °C 66.79 % 1,022.02 mbar 2.25 m/s 246.66 Deg 2.09 µg/m3
2023-01-05 16:00 13.97 µg/m3 2.32 µg/m3 25.09 µg/m3 9.18 µg/m3 16.56 °C 69.52 % 1,022.06 mbar 0.87 m/s 338.87 Deg 1.86 µg/m3
2023-01-05 15:00 16.82 µg/m3 2.53 µg/m3 24.38 µg/m3 9.01 µg/m3 16.59 °C 68.52 % 1,022.09 mbar 1.21 m/s 340.43 Deg 4.32 µg/m3
2023-01-05 14:00 8.81 µg/m3 2.78 µg/m3 29.56 µg/m3 8.87 µg/m3 17.03 °C 66.33 % 1,022.26 mbar 1.09 m/s 260.08 Deg 1.45 µg/m3
2023-01-05 13:00 10.28 µg/m3 2.8 µg/m3 25.47 µg/m3 8.83 µg/m3 16.94 °C 66.91 % 1,022.85 mbar 1.38 m/s 341.92 Deg 1.45 µg/m3
2023-01-05 12:00 15.24 µg/m3 3.4 µg/m3 29.43 µg/m3 9.53 µg/m3 16.99 °C 65.32 % 1,023.64 mbar 1.26 m/s 301.61 Deg 2.55 µg/m3
2023-01-05 11:00 19.96 µg/m3 3.6 µg/m3 33.52 µg/m3 10.69 µg/m3 16.06 °C 70.49 % 1,024.18 mbar 1.23 m/s 264.43 Deg 4.39 µg/m3
2023-01-05 10:00 77.25 µg/m3 7.04 µg/m3 62.96 µg/m3 28.55 µg/m3 14.44 °C 81.92 % 1,024.32 mbar 1.76 m/s 202.26 Deg 114.57 µg/m3
2023-01-05 09:00 78.33 µg/m3 10.05 µg/m3 65.98 µg/m3 32.16 µg/m3 12.69 °C 90.3 % 1,024.17 mbar 2.11 m/s 209.92 Deg 196.03 µg/m3
2023-01-05 08:00 62.43 µg/m3 8.83 µg/m3 57.57 µg/m3 28.18 µg/m3 12.4 °C 91.73 % 1,024.26 mbar 2 m/s 201.23 Deg 152.83 µg/m3
2023-01-05 07:00 59.01 µg/m3 5.02 µg/m3 38.85 µg/m3 20.36 µg/m3 12.54 °C 90.95 % 1,024.03 mbar 2.24 m/s 207.08 Deg 60.8 µg/m3
2023-01-05 06:00 49.61 µg/m3 3.57 µg/m3 37.23 µg/m3 18.81 µg/m3 12.89 °C 90.83 % 1,023.62 mbar 2.22 m/s 207.58 Deg 10.37 µg/m3
2023-01-05 05:00 43.54 µg/m3 3.49 µg/m3 33.04 µg/m3 18.62 µg/m3 13.24 °C 91.78 % 1,023.74 mbar 1.91 m/s 205.15 Deg 7.32 µg/m3
2023-01-05 04:00 39.85 µg/m3 3.87 µg/m3 33.57 µg/m3 18.72 µg/m3 13.02 °C 92.45 % 1,024.17 mbar 1.95 m/s 206.93 Deg 7.17 µg/m3
2023-01-05 03:00 38.56 µg/m3 3.26 µg/m3 31.65 µg/m3 18.38 µg/m3 12.63 °C 92.6 % 1,024.50 mbar 2.46 m/s 210.58 Deg 8.28 µg/m3
2023-01-05 02:00 41.94 µg/m3 3.25 µg/m3 37.61 µg/m3 20.54 µg/m3 12.79 °C 92.05 % 1,024.78 mbar 2.27 m/s 209.94 Deg 11.55 µg/m3
2023-01-05 01:00 42.24 µg/m3 4.05 µg/m3 44.45 µg/m3 24.12 µg/m3 12.98 °C 91.76 % 1,025.04 mbar 2.26 m/s 207.36 Deg 15.9 µg/m3
2023-01-05 00:00 46.24 µg/m3 4.39 µg/m3 42.44 µg/m3 23.61 µg/m3 13.4 °C 91.44 % 1,025.49 mbar 2.22 m/s 209.43 Deg 24.61 µg/m3
2023-01-04 23:00 44.44 µg/m3 4.63 µg/m3 46.28 µg/m3 25.65 µg/m3 13.74 °C 91.59 % 1,025.78 mbar 2.11 m/s 212.65 Deg 22.14 µg/m3
2023-01-04 22:00 48.59 µg/m3 4.69 µg/m3 52.85 µg/m3 28.04 µg/m3 14.14 °C 91.09 % 1,025.76 mbar 2.39 m/s 207.45 Deg 23.65 µg/m3
2023-01-04 21:00 57.79 µg/m3 4.16 µg/m3 53.78 µg/m3 26.95 µg/m3 14.98 °C 89.15 % 1,025.68 mbar 1.59 m/s 204.93 Deg 41.47 µg/m3
2023-01-04 20:00 44.82 µg/m3 2.31 µg/m3 45.47 µg/m3 21.87 µg/m3 15.82 °C 87.53 % 1,025.52 mbar 0.3 m/s 226.64 Deg 11.32 µg/m3
2023-01-04 19:00 40.77 µg/m3 1.48 µg/m3 36.54 µg/m3 17.32 µg/m3 16.26 °C 84.95 % 1,025.34 mbar 0.07 m/s 222.6 Deg 4.69 µg/m3
2023-01-04 18:00 43.83 µg/m3 11.86 µg/m3 28.5 µg/m3 13.82 µg/m3 16.71 °C 83.58 % 1,025.22 mbar 0.35 m/s 262.45 Deg 11.17 µg/m3
2023-01-04 17:00 13.54 µg/m3 2.11 µg/m3 28.48 µg/m3 11.11 µg/m3 17.37 °C 81.13 % 1,025.20 mbar 0.69 m/s 190.5 Deg 2.89 µg/m3
2023-01-04 16:00 12.12 µg/m3 1.86 µg/m3 25.03 µg/m3 11.75 µg/m3 17.18 °C 82.08 % 1,025.26 mbar 0.47 m/s 218.73 Deg 1.95 µg/m3
2023-01-04 15:00 11.97 µg/m3 1.16 µg/m3 31.55 µg/m3 12.4 µg/m3 17.26 °C 82.02 % 1,025.30 mbar 0.79 m/s 236.92 Deg 1.38 µg/m3
2023-01-04 14:00 20.69 µg/m3 1.43 µg/m3 49.67 µg/m3 13.5 µg/m3 17.26 °C 81.94 % 1,025.57 mbar 0.43 m/s 167.9 Deg 12.53 µg/m3
2023-01-04 13:00 12.32 µg/m3 1.49 µg/m3 25.17 µg/m3 11.52 µg/m3 17.11 °C 82.83 % 1,026.12 mbar 0.59 m/s 30.93 Deg 2.7 µg/m3
2023-01-04 12:00 12.7 µg/m3 0.92 µg/m3 26.47 µg/m3 12.31 µg/m3 16.97 °C 84.83 % 1,026.79 mbar 0.7 m/s 215.72 Deg 2.88 µg/m3
2023-01-04 11:00 13.33 µg/m3 1.09 µg/m3 26.01 µg/m3 12.37 µg/m3 16.88 °C 85.87 % 1,027.30 mbar 0.58 m/s 162.33 Deg 3.52 µg/m3
2023-01-04 10:00 39.09 µg/m3 1.77 µg/m3 34.94 µg/m3 16.86 µg/m3 16.52 °C 88.16 % 1,027.33 mbar 0.56 m/s 210.13 Deg 26.61 µg/m3
2023-01-04 09:00 68.49 µg/m3 4.62 µg/m3 46.65 µg/m3 22.91 µg/m3 15.66 °C 91.81 % 1,027.04 mbar 1.47 m/s 201.13 Deg 94.75 µg/m3
2023-01-04 08:00 55.54 µg/m3 2.56 µg/m3 31.06 µg/m3 16.86 µg/m3 15.84 °C 90.78 % 1,026.81 mbar 1.58 m/s 215.29 Deg 37.77 µg/m3
2023-01-04 07:00 24.27 µg/m3 1.06 µg/m3 23.96 µg/m3 12.7 µg/m3 16.13 °C 90.28 % 1,026.37 mbar 0.99 m/s 299 Deg 1.78 µg/m3
2023-01-04 06:00 22.91 µg/m3 1.52 µg/m3 23.41 µg/m3 12.03 µg/m3 16.38 °C 91.22 % 1,026.20 mbar 0.89 m/s 275.18 Deg 1.08 µg/m3
2023-01-04 05:00 8.36 µg/m3 1.45 µg/m3 23.36 µg/m3 11.44 µg/m3 16.52 °C 88.81 % 1,026.11 mbar 1.13 m/s 296.29 Deg 1.14 µg/m3
2023-01-04 04:00 33.13 µg/m3 2.47 µg/m3 24.39 µg/m3 13.45 µg/m3 16.52 °C 88.37 % 1,026.34 mbar 1.71 m/s 199.68 Deg 3.8 µg/m3
2023-01-04 03:00 36.3 µg/m3 1.9 µg/m3 22.41 µg/m3 12.23 µg/m3 15.95 °C 89.66 % 1,026.66 mbar 1.71 m/s 203.59 Deg 4.24 µg/m3
2023-01-04 02:00 45.84 µg/m3 3.08 µg/m3 23.94 µg/m3 12.88 µg/m3 15.48 °C 92.36 % 1,026.88 mbar 1.18 m/s 205.9 Deg 10.89 µg/m3
2023-01-04 01:00 38.92 µg/m3 3.43 µg/m3 23.54 µg/m3 12.12 µg/m3 15.62 °C 91.62 % 1,027.16 mbar 1.26 m/s 204.74 Deg 5.05 µg/m3
2023-01-04 00:00 46.93 µg/m3 3.55 µg/m3 22.64 µg/m3 11.74 µg/m3 15.79 °C 90.1 % 1,027.47 mbar 1.39 m/s 193.39 Deg 10.31 µg/m3
2023-01-03 23:00 48.81 µg/m3 2.96 µg/m3 25.16 µg/m3 13.1 µg/m3 15.98 °C 88.79 % 1,027.65 mbar 1.74 m/s 206.01 Deg 18.1 µg/m3

It is to be noted that the data is provisional and subject to quality assurance procedures. For validated data kindly refer your request to contact.air@era.org.mt